Wetterdaten: Dienstag, 31.03.2015
Datum Zeit Temp. Aussen +5cm Feuchte Auss Luftdruck Regen Sonnenschein Regendauer Solar Windben
31.03.2015 00:00 6,5 C 3,9 C 82 % 1005,6 hPa 0,2 l/m 0 min 2 min 0 W/m 18,8 km/h (3 Bft)
31.03.2015 00:02 6,5 C 3,9 C 82 % 1005,6 hPa 0,0 l/m 0 min 2 min 0 W/m 33,5 km/h (5 Bft)
31.03.2015 00:06 6,4 C 3,9 C 83 % 1005,3 hPa 0,0 l/m 0 min 2 min 0 W/m 33,5 km/h (5 Bft)
31.03.2015 00:08 6,4 C 3,9 C 84 % 1005,2 hPa 0,0 l/m 0 min 2 min 0 W/m 18,8 km/h (3 Bft)
31.03.2015 00:10 6,3 C 3,9 C 84 % 1005,2 hPa 0,0 l/m 0 min 2 min 0 W/m 18,8 km/h (3 Bft)
31.03.2015 00:12 6,3 C 3,9 C 85 % 1005,0 hPa 0,0 l/m 0 min 2 min 0 W/m 20,9 km/h (4 Bft)
31.03.2015 00:14 6,3 C 3,9 C 85 % 1004,9 hPa 0,0 l/m 0 min 2 min 0 W/m 14,6 km/h (3 Bft)
31.03.2015 00:16 6,2 C 3,9 C 86 % 1004,8 hPa 0,2 l/m 0 min 2 min 0 W/m 16,7 km/h (3 Bft)
31.03.2015 00:18 6,2 C 3,9 C 86 % 1004,8 hPa 0,0 l/m 0 min 2 min 0 W/m 18,8 km/h (3 Bft)
31.03.2015 00:20 6,2 C 3,9 C 86 % 1004,8 hPa 0,0 l/m 0 min 2 min 0 W/m 10,5 km/h (2 Bft)
31.03.2015 00:22 6,2 C 3,9 C 86 % 1004,7 hPa 0,2 l/m 0 min 2 min 0 W/m 12,6 km/h (3 Bft)
31.03.2015 00:24 6,2 C 3,9 C 87 % 1004,6 hPa 0,0 l/m 0 min 2 min 0 W/m 12,6 km/h (3 Bft)
31.03.2015 00:26 6,2 C 3,9 C 87 % 1004,5 hPa 0,0 l/m 0 min 2 min 0 W/m 12,6 km/h (3 Bft)
31.03.2015 00:28 6,1 C 3,9 C 87 % 1004,4 hPa 0,2 l/m 0 min 2 min 0 W/m 12,6 km/h (3 Bft)
31.03.2015 00:30 6,1 C 3,9 C 87 % 1004,3 hPa 0,0 l/m 0 min 2 min 0 W/m 6,3 km/h (2 Bft)
31.03.2015 00:32 6,1 C 3,9 C 87 % 1004,1 hPa 0,0 l/m 0 min 2 min 0 W/m 10,5 km/h (2 Bft)
31.03.2015 00:34 6,1 C 3,9 C 88 % 1004,0 hPa 0,2 l/m 0 min 2 min 0 W/m 14,6 km/h (3 Bft)
31.03.2015 00:36 6,1 C 3,9 C 88 % 1003,8 hPa 0,0 l/m 0 min 2 min 0 W/m 12,6 km/h (3 Bft)
31.03.2015 00:38 6,0 C 3,9 C 88 % 1003,8 hPa 0,2 l/m 0 min 2 min 0 W/m 10,5 km/h (2 Bft)
31.03.2015 00:40 6,0 C 3,9 C 88 % 1003,7 hPa 0,0 l/m 0 min 2 min 0 W/m 10,5 km/h (2 Bft)
31.03.2015 00:42 6,0 C 3,9 C 89 % 1003,6 hPa 0,0 l/m 0 min 2 min 0 W/m 12,6 km/h (3 Bft)
31.03.2015 00:44 6,0 C 3,9 C 89 % 1003,5 hPa 0,0 l/m 0 min 2 min 0 W/m 12,6 km/h (3 Bft)
31.03.2015 00:46 5,9 C 3,9 C 89 % 1003,4 hPa 0,2 l/m 0 min 2 min 0 W/m 12,6 km/h (3 Bft)
31.03.2015 00:48 5,9 C 3,9 C 89 % 1003,1 hPa 0,0 l/m 0 min 2 min 0 W/m 18,8 km/h (3 Bft)
31.03.2015 00:50 5,9 C 3,9 C 90 % 1003,0 hPa 0,0 l/m 0 min 2 min 0 W/m 25,1 km/h (4 Bft)
31.03.2015 00:52 5,9 C 3,9 C 90 % 1002,8 hPa 0,2 l/m 0 min 2 min 0 W/m 20,9 km/h (4 Bft)
31.03.2015 00:54 5,9 C 3,9 C 90 % 1002,7 hPa 0,0 l/m 0 min 2 min 0 W/m 18,8 km/h (3 Bft)
31.03.2015 00:56 5,9 C 3,9 C 90 % 1002,6 hPa 0,0 l/m 0 min 2 min 0 W/m 16,7 km/h (3 Bft)
31.03.2015 00:58 5,9 C 3,9 C 90 % 1002,6 hPa 0,2 l/m 0 min 2 min 0 W/m 18,8 km/h (3 Bft)
31.03.2015 01:00 5,9 C 4,4 C 91 % 1002,5 hPa 0,2 l/m 0 min 2 min 0 W/m 23,0 km/h (4 Bft)
31.03.2015 01:02 5,9 C 4,4 C 91 % 1002,3 hPa 0,0 l/m 0 min 2 min 0 W/m 14,6 km/h (3 Bft)
31.03.2015 01:04 5,9 C 4,4 C 91 % 1002,3 hPa 0,0 l/m 0 min 2 min 0 W/m 20,9 km/h (4 Bft)
31.03.2015 01:06 5,8 C 4,4 C 91 % 1002,1 hPa 0,2 l/m 0 min 2 min 0 W/m 18,8 km/h (3 Bft)
31.03.2015 01:08 5,8 C 4,4 C 91 % 1002,0 hPa 0,0 l/m 0 min 2 min 0 W/m 16,7 km/h (3 Bft)
31.03.2015 01:10 5,8 C 4,4 C 92 % 1001,8 hPa 0,2 l/m 0 min 2 min 0 W/m 25,1 km/h (4 Bft)
31.03.2015 01:12 5,8 C 4,4 C 92 % 1001,7 hPa 0,0 l/m 0 min 2 min 0 W/m 14,6 km/h (3 Bft)
31.03.2015 01:14 5,8 C 4,4 C 92 % 1001,5 hPa 0,0 l/m 0 min 2 min 0 W/m 16,7 km/h (3 Bft)
31.03.2015 01:16 5,8 C 4,4 C 92 % 1001,2 hPa 0,0 l/m 0 min 2 min 0 W/m 23,0 km/h (4 Bft)
31.03.2015 01:18 5,8 C 4,4 C 92 % 1001,0 hPa 0,2 l/m 0 min 2 min 0 W/m 23,0 km/h (4 Bft)
31.03.2015 01:20 5,8 C 4,4 C 92 % 1001,0 hPa 0,2 l/m 0 min 2 min 0 W/m 27,2 km/h (4 Bft)
31.03.2015 01:22 5,8 C 4,4 C 92 % 1001,0 hPa 0,0 l/m 0 min 2 min 0 W/m 23,0 km/h (4 Bft)
31.03.2015 01:24 5,8 C 4,4 C 92 % 1000,7 hPa 0,0 l/m 0 min 2 min 0 W/m 25,1 km/h (4 Bft)
31.03.2015 01:26 5,7 C 4,4 C 93 % 1000,7 hPa 0,2 l/m 0 min 2 min 0 W/m 23,0 km/h (4 Bft)
31.03.2015 01:28 5,7 C 4,4 C 93 % 1000,7 hPa 0,2 l/m 0 min 2 min 0 W/m 18,8 km/h (3 Bft)
31.03.2015 01:30 5,7 C 4,4 C 93 % 1000,5 hPa 0,0 l/m 0 min 2 min 0 W/m 20,9 km/h (4 Bft)
31.03.2015 01:32 5,7 C 4,4 C 93 % 1000,4 hPa 0,2 l/m 0 min 2 min 0 W/m 18,8 km/h (3 Bft)
31.03.2015 01:34 5,7 C 4,4 C 93 % 1000,2 hPa 0,2 l/m 0 min 2 min 0 W/m 25,1 km/h (4 Bft)
31.03.2015 01:36 5,7 C 4,4 C 93 % 999,9 hPa 0,0 l/m 0 min 2 min 0 W/m 16,7 km/h (3 Bft)
31.03.2015 01:38 5,7 C 4,4 C 93 % 999,9 hPa 0,2 l/m 0 min 2 min 0 W/m 18,8 km/h (3 Bft)
31.03.2015 01:40 5,7 C 4,4 C 93 % 999,8 hPa 0,2 l/m 0 min 2 min 0 W/m 23,0 km/h (4 Bft)
31.03.2015 01:42 5,7 C 4,4 C 94 % 999,7 hPa 0,0 l/m 0 min 2 min 0 W/m 25,1 km/h (4 Bft)
31.03.2015 01:44 5,7 C 4,4 C 94 % 999,7 hPa 0,2 l/m 0 min 2 min 0 W/m 27,2 km/h (4 Bft)
31.03.2015 01:46 5,7 C 4,4 C 94 % 999,7 hPa 0,2 l/m 0 min 2 min 0 W/m 18,8 km/h (3 Bft)
31.03.2015 01:48 5,7 C 4,4 C 94 % 999,7 hPa 0,0 l/m 0 min 2 min 0 W/m 20,9 km/h (4 Bft)
31.03.2015 01:50 5,7 C 4,4 C 94 % 999,6 hPa 0,0 l/m 0 min 2 min 0 W/m 20,9 km/h (4 Bft)
31.03.2015 01:52 5,7 C 4,4 C 94 % 999,4 hPa 0,2 l/m 0 min 2 min 0 W/m 16,7 km/h (3 Bft)
31.03.2015 01:54 5,7 C 4,4 C 94 % 999,2 hPa 0,2 l/m 0 min 2 min 0 W/m 18,8 km/h (3 Bft)
31.03.2015 01:56 5,7 C 4,4 C 94 % 999,0 hPa 0,0 l/m 0 min 2 min 0 W/m 16,7 km/h (3 Bft)
31.03.2015 01:58 5,7 C 4,4 C 94 % 999,0 hPa 0,0 l/m 0 min 2 min 0 W/m 14,6 km/h (3 Bft)
31.03.2015 02:00 5,7 C 4,4 C 95 % 998,8 hPa 0,0 l/m 0 min 2 min 0 W/m 29,3 km/h (5 Bft)
31.03.2015 02:02 5,8 C 4,4 C 95 % 998,7 hPa 0,2 l/m 0 min 2 min 0 W/m 25,1 km/h (4 Bft)
31.03.2015 02:04 5,8 C 4,4 C 95 % 998,8 hPa 0,0 l/m 0 min 2 min 0 W/m 14,6 km/h (3 Bft)
31.03.2015 02:06 5,8 C 4,4 C 95 % 998,6 hPa 0,2 l/m 0 min 2 min 0 W/m 16,7 km/h (3 Bft)
31.03.2015 02:08 5,8 C 4,4 C 95 % 998,8 hPa 0,0 l/m 0 min 2 min 0 W/m 14,6 km/h (3 Bft)
31.03.2015 02:10 5,8 C 4,4 C 95 % 998,5 hPa 0,0 l/m 0 min 2 min 0 W/m 16,7 km/h (3 Bft)
31.03.2015 02:12 5,9 C 4,4 C 95 % 998,4 hPa 0,4 l/m 0 min 2 min 0 W/m 16,7 km/h (3 Bft)
31.03.2015 02:14 5,9 C 5,0 C 95 % 998,4 hPa 0,0 l/m 0 min 2 min 0 W/m 25,1 km/h (4 Bft)
31.03.2015 02:16 5,9 C 5,0 C 95 % 998,4 hPa 0,0 l/m 0 min 2 min 0 W/m 16,7 km/h (3 Bft)
31.03.2015 02:18 5,9 C 5,0 C 95 % 998,3 hPa 0,2 l/m 0 min 2 min 0 W/m 25,1 km/h (4 Bft)
31.03.2015 02:20 6,0 C 5,0 C 95 % 997,9 hPa 0,2 l/m 0 min 2 min 0 W/m 20,9 km/h (4 Bft)
31.03.2015 02:22 6,0 C 5,0 C 95 % 997,9 hPa 0,0 l/m 0 min 2 min 0 W/m 18,8 km/h (3 Bft)
31.03.2015 02:24 6,1 C 5,0 C 95 % 998,0 hPa 0,2 l/m 0 min 2 min 0 W/m 16,7 km/h (3 Bft)
31.03.2015 02:26 6,1 C 5,0 C 95 % 997,8 hPa 0,2 l/m 0 min 2 min 0 W/m 27,2 km/h (4 Bft)
31.03.2015 02:28 6,2 C 5,0 C 96 % 997,6 hPa 0,0 l/m 0 min 2 min 0 W/m 23,0 km/h (4 Bft)
31.03.2015 02:30 6,3 C 5,0 C 96 % 997,5 hPa 0,2 l/m 0 min 2 min 0 W/m 18,8 km/h (3 Bft)
31.03.2015 02:32 6,3 C 5,6 C 96 % 997,5 hPa 0,2 l/m 0 min 2 min 0 W/m 31,4 km/h (5 Bft)
31.03.2015 02:34 6,4 C 5,6 C 96 % 997,5 hPa 0,0 l/m 0 min 2 min 0 W/m 31,4 km/h (5 Bft)
31.03.2015 02:36 6,5 C 5,6 C 96 % 997,2 hPa 0,2 l/m 0 min 2 min 0 W/m 25,1 km/h (4 Bft)
31.03.2015 02:38 6,7 C 5,6 C 96 % 997,1 hPa 0,2 l/m 0 min 2 min 0 W/m 29,3 km/h (5 Bft)
31.03.2015 02:40 6,8 C 6,1 C 96 % 997,0 hPa 0,0 l/m 0 min 2 min 0 W/m 25,1 km/h (4 Bft)
31.03.2015 02:42 6,9 C 6,1 C 96 % 996,9 hPa 0,0 l/m 0 min 2 min 0 W/m 25,1 km/h (4 Bft)
31.03.2015 02:44 7,0 C 6,1 C 96 % 997,0 hPa 0,2 l/m 0 min 2 min 0 W/m 27,2 km/h (4 Bft)
31.03.2015 02:46 7,1 C 6,1 C 96 % 996,9 hPa 0,2 l/m 0 min 2 min 0 W/m 29,3 km/h (5 Bft)
31.03.2015 02:48 7,2 C 6,1 C 97 % 996,9 hPa 0,0 l/m 0 min 2 min 0 W/m 29,3 km/h (5 Bft)
31.03.2015 02:50 7,4 C 6,7 C 97 % 996,7 hPa 0,0 l/m 0 min 2 min 0 W/m 41,8 km/h (6 Bft)
31.03.2015 02:52 7,5 C 6,7 C 97 % 996,6 hPa 0,0 l/m 0 min 2 min 0 W/m 31,4 km/h (5 Bft)
31.03.2015 02:54 7,6 C 6,7 C 97 % 996,3 hPa 0,2 l/m 0 min 2 min 0 W/m 31,4 km/h (5 Bft)
31.03.2015 02:56 7,7 C 6,7 C 97 % 996,0 hPa 0,0 l/m 0 min 2 min 0 W/m 29,3 km/h (5 Bft)
31.03.2015 02:58 7,7 C 6,7 C 97 % 996,0 hPa 0,2 l/m 0 min 2 min 0 W/m 33,5 km/h (5 Bft)
31.03.2015 03:00 7,8 C 6,7 C 97 % 995,9 hPa 0,0 l/m 0 min 2 min 0 W/m 29,3 km/h (5 Bft)
31.03.2015 03:02 7,9 C 6,7 C 97 % 995,8 hPa 0,0 l/m 0 min 2 min 0 W/m 23,0 km/h (4 Bft)
31.03.2015 03:04 7,9 C 6,7 C 97 % 995,5 hPa 0,2 l/m 0 min 2 min 0 W/m 29,3 km/h (5 Bft)
31.03.2015 03:06 8,0 C 6,7 C 97 % 995,5 hPa 0,0 l/m 0 min 2 min 0 W/m 27,2 km/h (4 Bft)
31.03.2015 03:08 8,1 C 6,7 C 97 % 995,4 hPa 0,0 l/m 0 min 2 min 0 W/m 43,9 km/h (6 Bft)
31.03.2015 03:10 8,1 C 6,7 C 97 % 995,3 hPa 0,2 l/m 0 min 2 min 0 W/m 35,6 km/h (5 Bft)
31.03.2015 03:12 8,2 C 7,2 C 97 % 995,1 hPa 0,0 l/m 0 min 2 min 0 W/m 37,7 km/h (5 Bft)
31.03.2015 03:14 8,3 C 7,2 C 97 % 995,1 hPa 0,0 l/m 0 min 2 min 0 W/m 33,5 km/h (5 Bft)
31.03.2015 03:16 8,4 C 7,2 C 97 % 994,9 hPa 0,0 l/m 0 min 2 min 0 W/m 46,0 km/h (6 Bft)
31.03.2015 03:18 8,5 C 7,2 C 97 % 994,9 hPa 0,0 l/m 0 min 2 min 0 W/m 39,7 km/h (6 Bft)
31.03.2015 03:20 8,6 C 7,2 C 97 % 994,8 hPa 0,2 l/m 0 min 2 min 0 W/m 37,7 km/h (5 Bft)
31.03.2015 03:22 8,6 C 7,2 C 97 % 994,8 hPa 0,0 l/m 0 min 2 min 0 W/m 46,0 km/h (6 Bft)
31.03.2015 03:24 8,7 C 7,2 C 98 % 994,6 hPa 0,0 l/m 0 min 2 min 0 W/m 48,1 km/h (6 Bft)
31.03.2015 03:26 8,8 C 7,2 C 98 % 994,5 hPa 0,2 l/m 0 min 2 min 0 W/m 50,2 km/h (7 Bft)
31.03.2015 03:28 8,9 C 7,8 C 98 % 994,4 hPa 0,0 l/m 0 min 2 min 0 W/m 43,9 km/h (6 Bft)
31.03.2015 03:30 8,9 C 7,8 C 98 % 994,4 hPa 0,2 l/m 0 min 2 min 0 W/m 43,9 km/h (6 Bft)
31.03.2015 03:32 9,0 C 7,8 C 97 % 994,4 hPa 0,0 l/m 0 min 2 min 0 W/m 43,9 km/h (6 Bft)
31.03.2015 03:34 9,1 C 7,8 C 97 % 994,4 hPa 0,2 l/m 0 min 2 min 0 W/m 54,4 km/h (7 Bft)
31.03.2015 03:36 9,1 C 7,8 C 97 % 994,4 hPa 0,0 l/m 0 min 2 min 0 W/m 62,8 km/h (8 Bft)
31.03.2015 03:38 9,2 C 7,8 C 98 % 994,1 hPa 0,2 l/m 0 min 2 min 0 W/m 50,2 km/h (7 Bft)
31.03.2015 03:40 9,2 C 7,8 C 98 % 994,0 hPa 0,0 l/m 0 min 2 min 0 W/m 52,3 km/h (7 Bft)
31.03.2015 03:42 9,3 C 7,8 C 98 % 994,0 hPa 0,0 l/m 0 min 2 min 0 W/m 50,2 km/h (7 Bft)
31.03.2015 03:44 9,3 C 7,8 C 98 % 993,8 hPa 0,2 l/m 0 min 2 min 0 W/m 54,4 km/h (7 Bft)
31.03.2015 03:46 9,4 C 7,8 C 98 % 993,7 hPa 0,0 l/m 0 min 2 min 0 W/m 60,7 km/h (7 Bft)
31.03.2015 03:48 9,5 C 7,8 C 98 % 993,6 hPa 0,2 l/m 0 min 2 min 0 W/m 50,2 km/h (7 Bft)
31.03.2015 03:50 9,5 C 7,8 C 98 % 993,5 hPa 0,0 l/m 0 min 2 min 0 W/m 54,4 km/h (7 Bft)
31.03.2015 03:52 9,6 C 8,3 C 98 % 993,5 hPa 0,0 l/m 0 min 2 min 0 W/m 50,2 km/h (7 Bft)
31.03.2015 03:54 9,6 C 8,3 C 98 % 993,3 hPa 0,2 l/m 0 min 2 min 0 W/m 43,9 km/h (6 Bft)
31.03.2015 03:56 9,7 C 8,3 C 98 % 993,3 hPa 0,0 l/m 0 min 2 min 0 W/m 66,9 km/h (8 Bft)
31.03.2015 03:58 9,7 C 8,3 C 98 % 993,1 hPa 0,0 l/m 0 min 2 min 0 W/m 54,4 km/h (7 Bft)
31.03.2015 04:00 9,7 C 8,3 C 98 % 993,0 hPa 0,2 l/m 0 min 2 min 0 W/m 50,2 km/h (7 Bft)
31.03.2015 04:05 9,8 C 8,3 C 98 % 993,0 hPa 0,0 l/m 0 min 2 min 0 W/m 43,9 km/h (6 Bft)
31.03.2015 04:06 9,8 C 8,3 C 98 % 993,0 hPa 0,2 l/m 0 min 1 min 0 W/m 50,2 km/h (7 Bft)
31.03.2015 04:08 9,8 C 8,3 C 98 % 992,9 hPa 0,0 l/m 0 min 2 min 0 W/m 64,9 km/h (8 Bft)
31.03.2015 04:10 9,9 C 8,3 C 98 % 992,7 hPa 0,0 l/m 0 min 2 min 0 W/m 56,5 km/h (7 Bft)
31.03.2015 04:12 9,9 C 8,3 C 98 % 992,7 hPa 0,2 l/m 0 min 2 min 0 W/m 56,5 km/h (7 Bft)
31.03.2015 04:14 9,9 C 8,3 C 98 % 992,7 hPa 0,0 l/m 0 min 2 min 0 W/m 60,7 km/h (7 Bft)
31.03.2015 04:16 10,0 C 8,3 C 98 % 992,7 hPa 0,0 l/m 0 min 2 min 0 W/m 52,3 km/h (7 Bft)
31.03.2015 04:18 10,0 C 8,3 C 98 % 992,6 hPa 0,0 l/m 0 min 2 min 0 W/m 66,9 km/h (8 Bft)
31.03.2015 04:20 10,1 C 8,3 C 98 % 992,3 hPa 0,0 l/m 0 min 2 min 0 W/m 50,2 km/h (7 Bft)
31.03.2015 04:22 10,1 C 8,3 C 97 % 992,2 hPa 0,0 l/m 0 min 2 min 0 W/m 64,9 km/h (8 Bft)
31.03.2015 04:24 10,1 C 8,3 C 97 % 992,1 hPa 0,0 l/m 0 min 2 min 0 W/m 58,6 km/h (7 Bft)
31.03.2015 04:26 10,2 C 8,3 C 97 % 992,1 hPa 0,0 l/m 0 min 2 min 0 W/m 66,9 km/h (8 Bft)
31.03.2015 04:28 10,2 C 8,3 C 98 % 992,1 hPa 0,0 l/m 0 min 2 min 0 W/m 58,6 km/h (7 Bft)
31.03.2015 04:30 10,2 C 8,3 C 98 % 992,0 hPa 0,0 l/m 0 min 2 min 0 W/m 60,7 km/h (7 Bft)
31.03.2015 04:32 10,2 C 8,3 C 98 % 991,9 hPa 0,2 l/m 0 min 2 min 0 W/m 60,7 km/h (7 Bft)
31.03.2015 04:34 10,2 C 8,3 C 97 % 992,0 hPa 0,0 l/m 0 min 2 min 0 W/m 64,9 km/h (8 Bft)
31.03.2015 04:36 10,2 C 8,9 C 97 % 992,0 hPa 0,0 l/m 0 min 2 min 0 W/m 60,7 km/h (7 Bft)
31.03.2015 04:38 10,3 C 8,9 C 97 % 991,9 hPa 0,0 l/m 0 min 2 min 0 W/m 71,1 km/h (8 Bft)
31.03.2015 04:40 10,3 C 8,9 C 97 % 992,0 hPa 0,0 l/m 0 min 2 min 0 W/m 69,0 km/h (8 Bft)
31.03.2015 04:42 10,3 C 8,9 C 97 % 991,8 hPa 0,0 l/m 0 min 2 min 0 W/m 73,2 km/h (8 Bft)
31.03.2015 04:44 10,4 C 8,9 C 97 % 991,4 hPa 0,0 l/m 0 min 2 min 0 W/m 69,0 km/h (8 Bft)
31.03.2015 04:46 10,4 C 8,9 C 97 % 991,6 hPa 0,0 l/m 0 min 2 min 0 W/m 79,5 km/h (9 Bft)
31.03.2015 04:48 10,4 C 8,9 C 97 % 991,6 hPa 0,0 l/m 0 min 2 min 0 W/m 69,0 km/h (8 Bft)
31.03.2015 04:50 10,4 C 8,9 C 97 % 991,6 hPa 0,0 l/m 0 min 2 min 0 W/m 58,6 km/h (7 Bft)
31.03.2015 04:52 10,5 C 8,9 C 97 % 991,5 hPa 0,0 l/m 0 min 2 min 0 W/m 58,6 km/h (7 Bft)
31.03.2015 04:54 10,5 C 8,9 C 97 % 991,5 hPa 0,0 l/m 0 min 2 min 0 W/m 56,5 km/h (7 Bft)
31.03.2015 04:56 10,6 C 8,9 C 97 % 991,6 hPa 0,0 l/m 0 min 2 min 0 W/m 48,1 km/h (6 Bft)
31.03.2015 04:58 10,6 C 8,9 C 97 % 991,6 hPa 0,0 l/m 0 min 2 min 0 W/m 58,6 km/h (7 Bft)
31.03.2015 05:00 10,6 C 8,9 C 97 % 991,6 hPa 0,0 l/m 0 min 2 min 0 W/m 60,7 km/h (7 Bft)
31.03.2015 05:02 10,6 C 8,9 C 96 % 991,5 hPa 0,0 l/m 0 min 2 min 0 W/m 56,5 km/h (7 Bft)
31.03.2015 05:04 10,6 C 8,9 C 96 % 991,3 hPa 0,0 l/m 0 min 2 min 0 W/m 79,5 km/h (9 Bft)
31.03.2015 05:06 10,6 C 8,9 C 96 % 991,7 hPa 0,0 l/m 0 min 2 min 0 W/m 62,8 km/h (8 Bft)
31.03.2015 05:08 10,7 C 8,9 C 96 % 991,6 hPa 0,0 l/m 0 min 2 min 0 W/m 77,4 km/h (9 Bft)
31.03.2015 05:10 10,7 C 8,9 C 96 % 991,5 hPa 0,0 l/m 0 min 2 min 0 W/m 69,0 km/h (8 Bft)
31.03.2015 05:12 10,7 C 8,9 C 96 % 991,8 hPa 0,0 l/m 0 min 2 min 0 W/m 77,4 km/h (9 Bft)
31.03.2015 05:14 10,7 C 8,9 C 96 % 991,8 hPa 0,0 l/m 0 min 2 min 0 W/m 69,0 km/h (8 Bft)
31.03.2015 05:16 10,8 C 8,9 C 96 % 991,8 hPa 0,0 l/m 0 min 2 min 0 W/m 54,4 km/h (7 Bft)
31.03.2015 05:18 10,8 C 8,9 C 96 % 991,9 hPa 0,2 l/m 0 min 2 min 0 W/m 50,2 km/h (7 Bft)
31.03.2015 05:20 10,7 C 8,9 C 96 % 991,8 hPa 0,0 l/m 0 min 2 min 0 W/m 71,1 km/h (8 Bft)
31.03.2015 05:22 10,7 C 8,9 C 95 % 991,9 hPa 0,0 l/m 0 min 2 min 0 W/m 60,7 km/h (7 Bft)
31.03.2015 05:24 10,7 C 8,9 C 95 % 991,8 hPa 0,2 l/m 0 min 2 min 0 W/m 58,6 km/h (7 Bft)
31.03.2015 05:26 10,7 C 8,9 C 95 % 991,7 hPa 0,0 l/m 0 min 2 min 0 W/m 43,9 km/h (6 Bft)
31.03.2015 05:28 10,7 C 8,9 C 95 % 991,8 hPa 0,0 l/m 0 min 2 min 0 W/m 58,6 km/h (7 Bft)
31.03.2015 05:30 10,7 C 8,9 C 95 % 991,8 hPa 0,2 l/m 0 min 2 min 0 W/m 62,8 km/h (8 Bft)
31.03.2015 05:32 10,7 C 8,9 C 95 % 991,9 hPa 0,0 l/m 0 min 2 min 0 W/m 60,7 km/h (7 Bft)
31.03.2015 05:34 10,7 C 8,9 C 95 % 991,8 hPa 0,0 l/m 0 min 2 min 0 W/m 50,2 km/h (7 Bft)
31.03.2015 05:36 10,6 C 8,9 C 95 % 991,9 hPa 0,0 l/m 0 min 2 min 0 W/m 48,1 km/h (6 Bft)
31.03.2015 05:38 10,6 C 8,9 C 96 % 991,9 hPa 0,2 l/m 0 min 2 min 0 W/m 54,4 km/h (7 Bft)
31.03.2015 05:40 10,6 C 8,9 C 96 % 991,9 hPa 0,0 l/m 0 min 2 min 0 W/m 50,2 km/h (7 Bft)
31.03.2015 05:42 10,6 C 8,9 C 96 % 991,9 hPa 0,0 l/m 0 min 2 min 0 W/m 60,7 km/h (7 Bft)
31.03.2015 05:44 10,6 C 8,9 C 96 % 992,2 hPa 0,0 l/m 0 min 2 min 0 W/m 50,2 km/h (7 Bft)
31.03.2015 05:46 10,6 C 8,9 C 96 % 992,1 hPa 0,0 l/m 0 min 2 min 0 W/m 56,5 km/h (7 Bft)
31.03.2015 05:48 10,6 C 8,9 C 96 % 992,1 hPa 0,0 l/m 0 min 2 min 0 W/m 58,6 km/h (7 Bft)
31.03.2015 05:50 10,6 C 8,9 C 96 % 992,0 hPa 0,0 l/m 0 min 2 min 0 W/m 52,3 km/h (7 Bft)
31.03.2015 05:52 10,5 C 8,9 C 96 % 992,2 hPa 0,0 l/m 0 min 2 min 0 W/m 54,4 km/h (7 Bft)
31.03.2015 05:54 10,5 C 8,9 C 96 % 992,2 hPa 0,0 l/m 0 min 2 min 0 W/m 56,5 km/h (7 Bft)
31.03.2015 05:56 10,5 C 8,9 C 96 % 992,1 hPa 0,0 l/m 0 min 2 min 0 W/m 58,6 km/h (7 Bft)
31.03.2015 05:58 10,5 C 8,9 C 96 % 991,9 hPa 0,0 l/m 0 min 2 min 0 W/m 50,2 km/h (7 Bft)
31.03.2015 06:00 10,4 C 8,9 C 96 % 991,9 hPa 0,0 l/m 0 min 2 min 0 W/m 52,3 km/h (7 Bft)
31.03.2015 06:02 10,4 C 8,9 C 96 % 991,9 hPa 0,0 l/m 0 min 2 min 0 W/m 52,3 km/h (7 Bft)
31.03.2015 06:06 10,4 C 8,9 C 96 % 991,7 hPa 0,0 l/m 0 min 2 min 0 W/m 66,9 km/h (8 Bft)
31.03.2015 06:08 10,4 C 8,9 C 96 % 991,8 hPa 0,0 l/m 0 min 2 min 0 W/m 62,8 km/h (8 Bft)
31.03.2015 06:10 10,4 C 8,9 C 96 % 991,8 hPa 0,0 l/m 0 min 2 min 0 W/m 50,2 km/h (7 Bft)
31.03.2015 06:12 10,4 C 8,9 C 96 % 991,9 hPa 0,2 l/m 0 min 2 min 0 W/m 60,7 km/h (7 Bft)
31.03.2015 06:14 10,3 C 8,3 C 96 % 991,6 hPa 0,0 l/m 0 min 2 min 0 W/m 73,2 km/h (8 Bft)
31.03.2015 06:16 10,3 C 8,3 C 96 % 991,8 hPa 0,0 l/m 0 min 2 min 0 W/m 64,9 km/h (8 Bft)
31.03.2015 06:18 10,3 C 8,3 C 96 % 991,5 hPa 0,0 l/m 0 min 2 min 0 W/m 62,8 km/h (8 Bft)
31.03.2015 06:20 10,3 C 8,3 C 96 % 991,8 hPa 0,0 l/m 0 min 2 min 0 W/m 77,4 km/h (9 Bft)
31.03.2015 06:22 10,3 C 8,3 C 96 % 991,6 hPa 0,0 l/m 0 min 2 min 0 W/m 54,4 km/h (7 Bft)
31.03.2015 06:24 10,3 C 8,3 C 96 % 991,7 hPa 0,0 l/m 0 min 2 min 0 W/m 64,9 km/h (8 Bft)
31.03.2015 06:26 10,3 C 8,3 C 96 % 991,7 hPa 0,0 l/m 0 min 2 min 0 W/m 77,4 km/h (9 Bft)
31.03.2015 06:28 10,3 C 8,3 C 96 % 991,5 hPa 0,0 l/m 0 min 2 min 0 W/m 64,9 km/h (8 Bft)
31.03.2015 06:30 10,3 C 8,3 C 96 % 991,6 hPa 0,0 l/m 0 min 2 min 0 W/m 71,1 km/h (8 Bft)
31.03.2015 06:32 10,3 C 8,3 C 96 % 991,4 hPa 0,0 l/m 0 min 2 min 0 W/m 62,8 km/h (8 Bft)
31.03.2015 06:34 10,3 C 8,3 C 96 % 991,4 hPa 0,0 l/m 0 min 2 min 0 W/m 58,6 km/h (7 Bft)
31.03.2015 06:36 10,2 C 8,3 C 96 % 991,6 hPa 0,0 l/m 0 min 2 min 0 W/m 69,0 km/h (8 Bft)
31.03.2015 06:38 10,2 C 8,3 C 96 % 991,8 hPa 0,0 l/m 0 min 2 min 0 W/m 60,7 km/h (7 Bft)
31.03.2015 06:40 10,2 C 8,3 C 96 % 991,7 hPa 0,0 l/m 0 min 2 min 0 W/m 60,7 km/h (7 Bft)
31.03.2015 06:42 10,2 C 8,3 C 96 % 991,5 hPa 0,0 l/m 0 min 2 min 0 W/m 62,8 km/h (8 Bft)
31.03.2015 06:44 10,2 C 8,3 C 96 % 991,6 hPa 0,0 l/m 0 min 2 min 0 W/m 71,1 km/h (8 Bft)
31.03.2015 06:46 10,2 C 8,3 C 96 % 991,4 hPa 0,2 l/m 0 min 2 min 0 W/m 54,4 km/h (7 Bft)
31.03.2015 06:48 10,2 C 8,3 C 96 % 991,5 hPa 0,0 l/m 0 min 2 min 0 W/m 52,3 km/h (7 Bft)
31.03.2015 06:50 10,2 C 8,3 C 96 % 991,4 hPa 0,0 l/m 0 min 2 min 0 W/m 64,9 km/h (8 Bft)
31.03.2015 06:52 10,2 C 8,3 C 96 % 991,7 hPa 0,0 l/m 0 min 2 min 0 W/m 64,9 km/h (8 Bft)
31.03.2015 06:54 10,1 C 8,3 C 96 % 991,7 hPa 0,0 l/m 0 min 2 min 0 W/m 66,9 km/h (8 Bft)
31.03.2015 06:56 10,1 C 8,3 C 96 % 991,6 hPa 0,0 l/m 0 min 2 min 0 W/m 56,5 km/h (7 Bft)
31.03.2015 06:58 10,1 C 8,3 C 96 % 991,5 hPa 0,2 l/m 0 min 2 min 0 W/m 56,5 km/h (7 Bft)
31.03.2015 07:00 10,1 C 8,3 C 96 % 991,8 hPa 0,0 l/m 0 min 2 min 0 W/m 56,5 km/h (7 Bft)
31.03.2015 07:02 10,1 C 8,3 C 96 % 991,6 hPa 0,0 l/m 0 min 2 min 0 W/m 66,9 km/h (8 Bft)
31.03.2015 07:04 10,1 C 8,3 C 96 % 991,6 hPa 0,0 l/m 0 min 2 min 0 W/m 60,7 km/h (7 Bft)
31.03.2015 07:06 10,1 C 8,3 C 95 % 991,8 hPa 0,0 l/m 0 min 2 min 0 W/m 52,3 km/h (7 Bft)
31.03.2015 07:08 10,1 C 8,3 C 95 % 991,6 hPa 0,0 l/m 0 min 2 min 0 W/m 73,2 km/h (8 Bft)
31.03.2015 07:10 10,1 C 8,3 C 95 % 991,5 hPa 0,0 l/m 0 min 0 min 0 W/m 71,1 km/h (8 Bft)
31.03.2015 07:12 10,1 C 8,3 C 96 % 991,8 hPa 0,0 l/m 0 min 2 min 0 W/m 58,6 km/h (7 Bft)
31.03.2015 07:14 10,1 C 8,3 C 95 % 991,9 hPa 0,0 l/m 0 min 2 min 0 W/m 64,9 km/h (8 Bft)
31.03.2015 07:16 10,1 C 8,3 C 95 % 991,9 hPa 0,2 l/m 0 min 2 min 0 W/m 58,6 km/h (7 Bft)
31.03.2015 07:18 10,1 C 8,3 C 95 % 991,9 hPa 0,0 l/m 0 min 2 min 0 W/m 69,0 km/h (8 Bft)
31.03.2015 07:20 10,1 C 8,3 C 95 % 992,0 hPa 0,0 l/m 0 min 2 min 0 W/m 64,9 km/h (8 Bft)
31.03.2015 07:22 10,2 C 8,3 C 95 % 991,9 hPa 0,0 l/m 0 min 2 min 0 W/m 52,3 km/h (7 Bft)
31.03.2015 07:24 10,2 C 8,3 C 95 % 991,9 hPa 0,0 l/m 0 min 2 min 0 W/m 52,3 km/h (7 Bft)
31.03.2015 07:26 10,1 C 8,3 C 95 % 992,0 hPa 0,0 l/m 0 min 2 min 0 W/m 41,8 km/h (6 Bft)
31.03.2015 07:28 10,1 C 8,3 C 95 % 991,9 hPa 0,0 l/m 0 min 2 min 0 W/m 46,0 km/h (6 Bft)
31.03.2015 07:30 10,1 C 8,3 C 95 % 992,0 hPa 0,0 l/m 0 min 2 min 0 W/m 54,4 km/h (7 Bft)
31.03.2015 07:32 10,1 C 8,3 C 95 % 991,9 hPa 0,2 l/m 0 min 2 min 2 W/m 60,7 km/h (7 Bft)
31.03.2015 07:34 10,1 C 8,3 C 95 % 991,9 hPa 0,0 l/m 0 min 2 min 3 W/m 43,9 km/h (6 Bft)
31.03.2015 07:36 10,1 C 8,3 C 95 % 992,0 hPa 0,0 l/m 0 min 2 min 3 W/m 62,8 km/h (8 Bft)
31.03.2015 07:38 10,1 C 8,3 C 95 % 991,9 hPa 0,0 l/m 0 min 2 min 0 W/m 56,5 km/h (7 Bft)
31.03.2015 07:40 10,1 C 8,3 C 95 % 991,9 hPa 0,0 l/m 0 min 2 min 5 W/m 56,5 km/h (7 Bft)
31.03.2015 07:42 10,1 C 8,3 C 95 % 992,0 hPa 0,2 l/m 0 min 2 min 5 W/m 62,8 km/h (8 Bft)
31.03.2015 07:44 10,1 C 8,3 C 95 % 991,9 hPa 0,0 l/m 0 min 2 min 5 W/m 79,5 km/h (9 Bft)
31.03.2015 07:46 10,0 C 8,3 C 95 % 992,2 hPa 0,0 l/m 0 min 2 min 1 W/m 71,1 km/h (8 Bft)
31.03.2015 07:48 10,1 C 8,3 C 95 % 992,0 hPa 0,0 l/m 0 min 2 min 1 W/m 62,8 km/h (8 Bft)
31.03.2015 07:50 10,1 C 8,3 C 95 % 992,2 hPa 0,0 l/m 0 min 2 min 0 W/m 48,1 km/h (6 Bft)
31.03.2015 07:52 10,0 C 7,8 C 95 % 992,4 hPa 0,0 l/m 0 min 2 min 0 W/m 58,6 km/h (7 Bft)
31.03.2015 07:54 10,0 C 7,8 C 95 % 992,5 hPa 0,0 l/m 0 min 2 min 5 W/m 46,0 km/h (6 Bft)
31.03.2015 07:56 10,0 C 7,8 C 95 % 992,4 hPa 0,0 l/m 0 min 2 min 6 W/m 48,1 km/h (6 Bft)
31.03.2015 07:58 10,0 C 7,8 C 95 % 992,5 hPa 0,0 l/m 0 min 2 min 6 W/m 41,8 km/h (6 Bft)
31.03.2015 08:00 10,0 C 7,8 C 95 % 992,5 hPa 0,0 l/m 0 min 2 min 10 W/m 50,2 km/h (7 Bft)
31.03.2015 08:02 10,0 C 8,3 C 94 % 992,5 hPa 0,0 l/m 0 min 2 min 13 W/m 52,3 km/h (7 Bft)
31.03.2015 08:04 10,1 C 8,3 C 94 % 992,6 hPa 0,0 l/m 0 min 0 min 17 W/m 52,3 km/h (7 Bft)
31.03.2015 08:06 10,1 C 8,3 C 94 % 992,5 hPa 0,0 l/m 0 min 2 min 14 W/m 50,2 km/h (7 Bft)
31.03.2015 08:08 10,1 C 8,3 C 94 % 992,5 hPa 0,0 l/m 0 min 2 min 13 W/m 48,1 km/h (6 Bft)
31.03.2015 08:10 10,1 C 8,3 C 94 % 992,7 hPa 0,2 l/m 0 min 2 min 17 W/m 41,8 km/h (6 Bft)
31.03.2015 08:12 10,1 C 7,8 C 94 % 992,7 hPa 0,0 l/m 0 min 2 min 13 W/m 50,2 km/h (7 Bft)
31.03.2015 08:14 10,1 C 7,8 C 94 % 992,9 hPa 0,4 l/m 0 min 2 min 15 W/m 52,3 km/h (7 Bft)
31.03.2015 08:16 10,1 C 7,8 C 94 % 992,7 hPa 0,6 l/m 0 min 2 min 12 W/m 48,1 km/h (6 Bft)
31.03.2015 08:18 10,1 C 7,8 C 94 % 992,8 hPa 0,2 l/m 0 min 2 min 9 W/m 33,5 km/h (5 Bft)
31.03.2015 08:20 10,1 C 7,8 C 94 % 993,0 hPa 0,0 l/m 0 min 2 min 14 W/m 43,9 km/h (6 Bft)
31.03.2015 08:22 10,0 C 7,8 C 94 % 993,1 hPa 0,0 l/m 0 min 2 min 11 W/m 25,1 km/h (4 Bft)
31.03.2015 08:24 10,0 C 7,8 C 94 % 993,1 hPa 0,2 l/m 0 min 2 min 11 W/m 43,9 km/h (6 Bft)
31.03.2015 08:26 9,9 C 7,8 C 94 % 993,2 hPa 0,2 l/m 0 min 2 min 9 W/m 56,5 km/h (7 Bft)
31.03.2015 08:28 9,9 C 7,8 C 94 % 993,2 hPa 0,0 l/m 0 min 2 min 9 W/m 43,9 km/h (6 Bft)
31.03.2015 08:30 9,8 C 7,8 C 94 % 993,2 hPa 0,0 l/m 0 min 2 min 12 W/m 35,6 km/h (5 Bft)
31.03.2015 08:32 9,8 C 7,8 C 94 % 993,3 hPa 0,0 l/m 0 min 2 min 12 W/m 27,2 km/h (4 Bft)
31.03.2015 08:34 9,8 C 7,8 C 94 % 993,4 hPa 0,2 l/m 0 min 2 min 18 W/m 54,4 km/h (7 Bft)
31.03.2015 08:36 9,8 C 7,8 C 94 % 993,7 hPa 0,0 l/m 0 min 2 min 21 W/m 58,6 km/h (7 Bft)
31.03.2015 08:38 9,8 C 7,8 C 95 % 993,7 hPa 0,0 l/m 0 min 2 min 34 W/m 48,1 km/h (6 Bft)
31.03.2015 08:40 9,8 C 7,8 C 95 % 993,8 hPa 0,0 l/m 0 min 0 min 69 W/m 37,7 km/h (5 Bft)
31.03.2015 08:42 9,8 C 7,8 C 95 % 993,9 hPa 0,0 l/m 0 min 2 min 69 W/m 50,2 km/h (7 Bft)
31.03.2015 08:44 9,7 C 7,8 C 95 % 994,0 hPa 0,0 l/m 0 min 2 min 72 W/m 50,2 km/h (7 Bft)
31.03.2015 08:46 9,7 C 8,3 C 95 % 993,9 hPa 0,0 l/m 0 min 2 min 42 W/m 54,4 km/h (7 Bft)
31.03.2015 08:48 9,7 C 8,3 C 95 % 994,0 hPa 0,0 l/m 0 min 2 min 47 W/m 39,7 km/h (6 Bft)
31.03.2015 08:50 9,7 C 8,3 C 95 % 994,0 hPa 0,0 l/m 0 min 2 min 54 W/m 56,5 km/h (7 Bft)
31.03.2015 08:52 9,7 C 8,3 C 95 % 994,2 hPa 0,0 l/m 0 min 2 min 44 W/m 56,5 km/h (7 Bft)
31.03.2015 08:54 9,7 C 8,3 C 94 % 994,4 hPa 0,0 l/m 0 min 2 min 35 W/m 52,3 km/h (7 Bft)
31.03.2015 08:56 9,7 C 8,3 C 94 % 994,2 hPa 0,0 l/m 0 min 2 min 70 W/m 48,1 km/h (6 Bft)
31.03.2015 08:58 9,7 C 8,3 C 94 % 994,5 hPa 0,0 l/m 2 min 2 min 164 W/m 58,6 km/h (7 Bft)
31.03.2015 09:00 9,6 C 8,3 C 93 % 994,5 hPa 0,0 l/m 2 min 2 min 211 W/m 50,2 km/h (7 Bft)
31.03.2015 09:02 9,7 C 8,3 C 93 % 994,5 hPa 0,0 l/m 2 min 2 min 240 W/m 50,2 km/h (7 Bft)
31.03.2015 09:04 9,7 C 8,3 C 93 % 994,5 hPa 0,0 l/m 2 min 0 min 216 W/m 43,9 km/h (6 Bft)
31.03.2015 09:06 9,7 C 8,3 C 92 % 994,5 hPa 0,0 l/m 2 min 0 min 276 W/m 50,2 km/h (7 Bft)
31.03.2015 09:08 9,7 C 8,3 C 92 % 994,5 hPa 0,0 l/m 2 min 2 min 244 W/m 58,6 km/h (7 Bft)
31.03.2015 09:10 9,8 C 8,3 C 91 % 994,5 hPa 0,0 l/m 2 min 0 min 269 W/m 58,6 km/h (7 Bft)
31.03.2015 09:12 9,8 C 8,3 C 90 % 994,5 hPa 0,0 l/m 2 min 2 min 296 W/m 52,3 km/h (7 Bft)
31.03.2015 09:14 9,9 C 8,3 C 90 % 994,6 hPa 0,0 l/m 2 min 0 min 298 W/m 48,1 km/h (6 Bft)
31.03.2015 09:16 10,0 C 8,9 C 89 % 994,7 hPa 0,0 l/m 2 min 0 min 387 W/m 56,5 km/h (7 Bft)
31.03.2015 09:18 10,1 C 8,9 C 89 % 994,6 hPa 0,0 l/m 2 min 0 min 304 W/m 54,4 km/h (7 Bft)
31.03.2015 09:20 10,2 C 8,3 C 88 % 994,6 hPa 0,0 l/m 0 min 2 min 102 W/m 48,1 km/h (6 Bft)
31.03.2015 09:22 10,2 C 8,3 C 88 % 994,6 hPa 0,0 l/m 0 min 2 min 113 W/m 41,8 km/h (6 Bft)
31.03.2015 09:24 10,2 C 8,3 C 87 % 994,7 hPa 0,0 l/m 0 min 2 min 148 W/m 35,6 km/h (5 Bft)
31.03.2015 09:26 10,3 C 8,3 C 87 % 994,8 hPa 0,0 l/m 2 min 0 min 175 W/m 48,1 km/h (6 Bft)
31.03.2015 09:28 10,3 C 8,3 C 87 % 994,8 hPa 0,0 l/m 2 min 0 min 341 W/m 54,4 km/h (7 Bft)
31.03.2015 09:30 10,3 C 8,3 C 87 % 994,7 hPa 0,0 l/m 2 min 0 min 369 W/m 43,9 km/h (6 Bft)
31.03.2015 09:32 10,3 C 8,3 C 86 % 994,8 hPa 0,0 l/m 2 min 0 min 312 W/m 43,9 km/h (6 Bft)
31.03.2015 09:34 10,3 C 8,3 C 85 % 995,0 hPa 0,0 l/m 0 min 0 min 127 W/m 52,3 km/h (7 Bft)
31.03.2015 09:36 10,4 C 8,9 C 84 % 995,0 hPa 0,0 l/m 2 min 0 min 388 W/m 75,3 km/h (9 Bft)
31.03.2015 09:38 10,4 C 8,3 C 83 % 995,1 hPa 0,0 l/m 2 min 0 min 406 W/m 50,2 km/h (7 Bft)
31.03.2015 09:40 10,4 C 8,9 C 83 % 995,1 hPa 0,0 l/m 2 min 0 min 393 W/m 73,2 km/h (8 Bft)
31.03.2015 09:42 10,6 C 8,9 C 82 % 995,1 hPa 0,0 l/m 2 min 0 min 457 W/m 50,2 km/h (7 Bft)
31.03.2015 09:44 10,6 C 8,9 C 81 % 995,1 hPa 0,0 l/m 2 min 0 min 541 W/m 60,7 km/h (7 Bft)
31.03.2015 09:46 10,7 C 8,9 C 80 % 995,1 hPa 0,0 l/m 2 min 0 min 300 W/m 39,7 km/h (6 Bft)
31.03.2015 09:48 10,8 C 8,9 C 80 % 994,9 hPa 0,0 l/m 0 min 0 min 185 W/m 56,5 km/h (7 Bft)
31.03.2015 09:50 10,8 C 8,9 C 79 % 995,0 hPa 0,0 l/m 0 min 0 min 183 W/m 46,0 km/h (6 Bft)
31.03.2015 09:52 10,8 C 8,9 C 78 % 995,1 hPa 0,0 l/m 0 min 0 min 162 W/m 39,7 km/h (6 Bft)
31.03.2015 09:54 10,8 C 8,9 C 78 % 995,3 hPa 0,0 l/m 0 min 0 min 172 W/m 64,9 km/h (8 Bft)
31.03.2015 09:56 10,8 C 8,9 C 76 % 995,1 hPa 0,0 l/m 0 min 0 min 162 W/m 60,7 km/h (7 Bft)
31.03.2015 09:58 10,9 C 8,9 C 76 % 995,2 hPa 0,0 l/m 0 min 0 min 167 W/m 46,0 km/h (6 Bft)
31.03.2015 10:00 10,9 C 8,9 C 76 % 995,0 hPa 0,0 l/m 0 min 0 min 196 W/m 62,8 km/h (8 Bft)
31.03.2015 10:02 10,9 C 8,9 C 75 % 995,2 hPa 0,0 l/m 0 min 0 min 179 W/m 54,4 km/h (7 Bft)
31.03.2015 10:04 10,9 C 8,9 C 75 % 995,1 hPa 0,0 l/m 0 min 0 min 152 W/m 58,6 km/h (7 Bft)
31.03.2015 10:06 10,9 C 8,9 C 75 % 995,4 hPa 0,0 l/m 0 min 0 min 138 W/m 56,5 km/h (7 Bft)
31.03.2015 10:08 10,9 C 8,9 C 74 % 995,3 hPa 0,0 l/m 0 min 0 min 127 W/m 54,4 km/h (7 Bft)
31.03.2015 10:10 10,9 C 8,9 C 74 % 995,3 hPa 0,0 l/m 0 min 0 min 115 W/m 54,4 km/h (7 Bft)
31.03.2015 10:12 10,9 C 8,9 C 74 % 995,6 hPa 0,0 l/m 0 min 0 min 82 W/m 56,5 km/h (7 Bft)
31.03.2015 10:14 10,8 C 8,9 C 73 % 995,6 hPa 0,0 l/m 0 min 0 min 89 W/m 46,0 km/h (6 Bft)
31.03.2015 10:16 10,8 C 8,9 C 73 % 995,6 hPa 0,0 l/m 0 min 0 min 92 W/m 50,2 km/h (7 Bft)
31.03.2015 10:18 10,8 C 8,9 C 73 % 995,6 hPa 0,0 l/m 0 min 0 min 133 W/m 60,7 km/h (7 Bft)
31.03.2015 10:20 10,8 C 8,9 C 73 % 995,6 hPa 0,0 l/m 0 min 0 min 106 W/m 62,8 km/h (8 Bft)
31.03.2015 10:22 10,8 C 8,9 C 73 % 995,8 hPa 0,0 l/m 0 min 0 min 80 W/m 48,1 km/h (6 Bft)
31.03.2015 10:24 10,8 C 8,9 C 73 % 995,7 hPa 0,0 l/m 0 min 0 min 137 W/m 56,5 km/h (7 Bft)
31.03.2015 10:26 10,8 C 8,9 C 74 % 995,7 hPa 0,0 l/m 0 min 0 min 96 W/m 54,4 km/h (7 Bft)
31.03.2015 10:28 10,8 C 8,9 C 74 % 995,9 hPa 0,0 l/m 0 min 0 min 92 W/m 56,5 km/h (7 Bft)
31.03.2015 10:30 10,8 C 9,4 C 74 % 995,7 hPa 0,0 l/m 0 min 0 min 146 W/m 52,3 km/h (7 Bft)
31.03.2015 10:32 10,8 C 9,4 C 74 % 996,0 hPa 0,0 l/m 0 min 0 min 181 W/m 60,7 km/h (7 Bft)
31.03.2015 10:34 10,8 C 9,4 C 74 % 995,8 hPa 0,0 l/m 0 min 0 min 180 W/m 50,2 km/h (7 Bft)
31.03.2015 10:36 10,8 C 9,4 C 74 % 996,0 hPa 0,0 l/m 0 min 0 min 195 W/m 62,8 km/h (8 Bft)
31.03.2015 10:38 10,8 C 9,4 C 74 % 995,9 hPa 0,0 l/m 0 min 0 min 206 W/m 46,0 km/h (6 Bft)
31.03.2015 10:40 10,8 C 9,4 C 74 % 996,0 hPa 0,0 l/m 0 min 0 min 185 W/m 52,3 km/h (7 Bft)
31.03.2015 10:42 10,8 C 9,4 C 74 % 996,0 hPa 0,0 l/m 0 min 0 min 155 W/m 62,8 km/h (8 Bft)
31.03.2015 10:44 10,8 C 9,4 C 73 % 996,2 hPa 0,0 l/m 0 min 0 min 162 W/m 46,0 km/h (6 Bft)
31.03.2015 10:46 10,8 C 9,4 C 73 % 996,2 hPa 0,0 l/m 0 min 0 min 184 W/m 50,2 km/h (7 Bft)
31.03.2015 10:48 10,8 C 9,4 C 73 % 996,2 hPa 0,0 l/m 0 min 0 min 209 W/m 56,5 km/h (7 Bft)
31.03.2015 10:50 10,9 C 10,0 C 74 % 996,3 hPa 0,0 l/m 0 min 0 min 229 W/m 31,4 km/h (5 Bft)
31.03.2015 10:52 10,9 C 10,0 C 74 % 996,2 hPa 0,0 l/m 0 min 0 min 226 W/m 39,7 km/h (6 Bft)
31.03.2015 10:54 10,9 C 10,0 C 74 % 996,4 hPa 0,0 l/m 0 min 0 min 222 W/m 48,1 km/h (6 Bft)
31.03.2015 10:56 10,9 C 10,0 C 74 % 996,5 hPa 0,0 l/m 0 min 0 min 240 W/m 56,5 km/h (7 Bft)
31.03.2015 10:58 10,9 C 10,0 C 73 % 996,4 hPa 0,0 l/m 0 min 0 min 228 W/m 71,1 km/h (8 Bft)
31.03.2015 11:00 10,9 C 10,0 C 72 % 996,6 hPa 0,0 l/m 2 min 0 min 278 W/m 58,6 km/h (7 Bft)
31.03.2015 11:02 10,9 C 10,0 C 71 % 996,6 hPa 0,0 l/m 0 min 0 min 249 W/m 71,1 km/h (8 Bft)
31.03.2015 11:04 10,9 C 10,0 C 71 % 996,7 hPa 0,0 l/m 0 min 0 min 244 W/m 58,6 km/h (7 Bft)
31.03.2015 11:06 10,9 C 10,0 C 71 % 996,6 hPa 0,0 l/m 0 min 0 min 227 W/m 48,1 km/h (6 Bft)
31.03.2015 11:08 11,0 C 10,0 C 71 % 996,6 hPa 0,0 l/m 0 min 0 min 237 W/m 56,5 km/h (7 Bft)
31.03.2015 11:10 11,0 C 10,0 C 71 % 996,8 hPa 0,0 l/m 0 min 0 min 240 W/m 48,1 km/h (6 Bft)
31.03.2015 11:12 11,0 C 10,0 C 71 % 996,7 hPa 0,0 l/m 2 min 0 min 286 W/m 62,8 km/h (8 Bft)
31.03.2015 11:14 11,1 C 10,0 C 71 % 996,9 hPa 0,0 l/m 0 min 0 min 228 W/m 48,1 km/h (6 Bft)
31.03.2015 11:16 11,1 C 10,0 C 71 % 997,0 hPa 0,0 l/m 0 min 0 min 274 W/m 60,7 km/h (7 Bft)
31.03.2015 11:18 11,1 C 10,0 C 70 % 997,1 hPa 0,0 l/m 2 min 0 min 368 W/m 64,9 km/h (8 Bft)
31.03.2015 11:20 11,2 C 10,6 C 69 % 997,0 hPa 0,0 l/m 2 min 0 min 432 W/m 73,2 km/h (8 Bft)
31.03.2015 11:22 11,2 C 10,0 C 69 % 997,1 hPa 0,0 l/m 0 min 0 min 251 W/m 75,3 km/h (9 Bft)
31.03.2015 11:24 11,2 C 10,0 C 69 % 997,1 hPa 0,0 l/m 0 min 0 min 271 W/m 50,2 km/h (7 Bft)
31.03.2015 11:26 11,2 C 10,0 C 69 % 997,1 hPa 0,0 l/m 0 min 0 min 261 W/m 43,9 km/h (6 Bft)
31.03.2015 11:28 11,2 C 10,0 C 69 % 997,2 hPa 0,0 l/m 0 min 0 min 214 W/m 54,4 km/h (7 Bft)
31.03.2015 11:30 11,2 C 10,0 C 69 % 997,3 hPa 0,0 l/m 0 min 0 min 215 W/m 64,9 km/h (8 Bft)
31.03.2015 11:32 11,2 C 10,0 C 69 % 997,1 hPa 0,0 l/m 0 min 0 min 196 W/m 48,1 km/h (6 Bft)
31.03.2015 11:34 11,1 C 10,0 C 69 % 997,2 hPa 0,0 l/m 0 min 0 min 182 W/m 73,2 km/h (8 Bft)
31.03.2015 11:36 11,1 C 10,0 C 69 % 997,3 hPa 0,0 l/m 0 min 0 min 152 W/m 41,8 km/h (6 Bft)
31.03.2015 11:38 11,1 C 10,0 C 70 % 997,2 hPa 0,0 l/m 0 min 0 min 168 W/m 39,7 km/h (6 Bft)
31.03.2015 11:40 11,1 C 10,0 C 70 % 997,5 hPa 0,0 l/m 0 min 0 min 183 W/m 56,5 km/h (7 Bft)
31.03.2015 11:42 11,0 C 10,0 C 69 % 997,0 hPa 0,0 l/m 0 min 0 min 202 W/m 60,7 km/h (7 Bft)
31.03.2015 11:44 11,1 C 10,0 C 69 % 997,5 hPa 0,0 l/m 0 min 0 min 269 W/m 41,8 km/h (6 Bft)
31.03.2015 11:46 11,2 C 10,0 C 70 % 997,3 hPa 0,0 l/m 0 min 0 min 202 W/m 43,9 km/h (6 Bft)
31.03.2015 11:48 11,2 C 10,0 C 69 % 997,6 hPa 0,0 l/m 0 min 0 min 166 W/m 62,8 km/h (8 Bft)
31.03.2015 11:50 11,1 C 10,0 C 69 % 997,5 hPa 0,0 l/m 0 min 0 min 223 W/m 37,7 km/h (5 Bft)
31.03.2015 11:52 11,2 C 10,0 C 69 % 997,6 hPa 0,0 l/m 0 min 0 min 189 W/m 50,2 km/h (7 Bft)
31.03.2015 11:54 11,1 C 10,0 C 69 % 997,7 hPa 0,0 l/m 0 min 0 min 154 W/m 43,9 km/h (6 Bft)
31.03.2015 11:56 11,1 C 10,0 C 69 % 997,6 hPa 0,0 l/m 0 min 0 min 164 W/m 43,9 km/h (6 Bft)
31.03.2015 11:58 11,1 C 10,0 C 68 % 997,8 hPa 0,0 l/m 0 min 0 min 206 W/m 60,7 km/h (7 Bft)
31.03.2015 12:00 11,1 C 10,0 C 67 % 997,9 hPa 0,0 l/m 0 min 0 min 171 W/m 64,9 km/h (8 Bft)
31.03.2015 12:02 11,1 C 10,0 C 67 % 997,9 hPa 0,0 l/m 0 min 0 min 186 W/m 64,9 km/h (8 Bft)
31.03.2015 12:06 10,9 C 9,4 C 67 % 998,0 hPa 0,0 l/m 0 min 0 min 129 W/m 75,3 km/h (9 Bft)
31.03.2015 12:08 10,9 C 10,0 C 67 % 998,0 hPa 0,0 l/m 0 min 2 min 252 W/m 46,0 km/h (6 Bft)
31.03.2015 12:10 11,0 C 10,0 C 68 % 998,1 hPa 0,0 l/m 0 min 0 min 289 W/m 43,9 km/h (6 Bft)
31.03.2015 12:12 11,1 C 10,6 C 67 % 998,1 hPa 0,0 l/m 0 min 0 min 292 W/m 52,3 km/h (7 Bft)
31.03.2015 12:14 11,1 C 10,6 C 67 % 998,3 hPa 0,0 l/m 0 min 0 min 287 W/m 52,3 km/h (7 Bft)
31.03.2015 12:16 11,2 C 10,0 C 66 % 998,3 hPa 0,0 l/m 0 min 0 min 267 W/m 62,8 km/h (8 Bft)
31.03.2015 12:18 11,2 C 10,0 C 66 % 998,4 hPa 0,0 l/m 0 min 0 min 235 W/m 60,7 km/h (7 Bft)
31.03.2015 12:20 11,2 C 10,0 C 66 % 998,4 hPa 0,0 l/m 0 min 0 min 226 W/m 54,4 km/h (7 Bft)
31.03.2015 12:22 11,1 C 10,0 C 66 % 998,6 hPa 0,0 l/m 0 min 2 min 174 W/m 62,8 km/h (8 Bft)
31.03.2015 12:24 11,0 C 9,4 C 67 % 998,6 hPa 0,0 l/m 0 min 2 min 167 W/m 48,1 km/h (6 Bft)
31.03.2015 12:26 10,8 C 9,4 C 68 % 998,7 hPa 0,0 l/m 0 min 2 min 172 W/m 62,8 km/h (8 Bft)
31.03.2015 12:28 10,7 C 8,9 C 70 % 998,7 hPa 0,0 l/m 0 min 2 min 185 W/m 62,8 km/h (8 Bft)
31.03.2015 12:30 10,6 C 8,9 C 69 % 998,8 hPa 0,0 l/m 0 min 2 min 150 W/m 73,2 km/h (8 Bft)
31.03.2015 12:32 10,4 C 8,9 C 69 % 998,7 hPa 0,0 l/m 0 min 2 min 209 W/m 58,6 km/h (7 Bft)
31.03.2015 12:34 10,4 C 9,4 C 69 % 998,9 hPa 0,0 l/m 0 min 0 min 248 W/m 52,3 km/h (7 Bft)
31.03.2015 12:36 10,5 C 10,0 C 69 % 999,1 hPa 0,0 l/m 2 min 2 min 326 W/m 56,5 km/h (7 Bft)
31.03.2015 12:38 10,6 C 10,0 C 69 % 999,0 hPa 0,0 l/m 0 min 0 min 258 W/m 52,3 km/h (7 Bft)
31.03.2015 12:40 10,7 C 10,0 C 68 % 999,2 hPa 0,0 l/m 0 min 2 min 312 W/m 71,1 km/h (8 Bft)
31.03.2015 12:42 10,8 C 10,6 C 68 % 999,1 hPa 0,0 l/m 2 min 0 min 421 W/m 50,2 km/h (7 Bft)
31.03.2015 12:44 10,9 C 11,1 C 68 % 999,1 hPa 0,0 l/m 2 min 0 min 376 W/m 41,8 km/h (6 Bft)
31.03.2015 12:46 11,1 C 10,6 C 66 % 999,2 hPa 0,0 l/m 2 min 0 min 376 W/m 58,6 km/h (7 Bft)
31.03.2015 12:48 11,1 C 10,0 C 66 % 999,3 hPa 0,0 l/m 0 min 2 min 250 W/m 58,6 km/h (7 Bft)
31.03.2015 12:50 11,1 C 10,0 C 67 % 999,5 hPa 0,0 l/m 0 min 2 min 216 W/m 66,9 km/h (8 Bft)
31.03.2015 12:52 11,1 C 9,4 C 66 % 999,3 hPa 0,0 l/m 0 min 0 min 207 W/m 58,6 km/h (7 Bft)
31.03.2015 12:54 11,0 C 9,4 C 66 % 999,4 hPa 0,0 l/m 0 min 2 min 272 W/m 60,7 km/h (7 Bft)
31.03.2015 12:56 10,9 C 9,4 C 67 % 999,3 hPa 0,0 l/m 0 min 0 min 265 W/m 69,0 km/h (8 Bft)
31.03.2015 12:58 10,9 C 9,4 C 67 % 999,5 hPa 0,0 l/m 0 min 2 min 196 W/m 43,9 km/h (6 Bft)
31.03.2015 13:00 10,8 C 8,9 C 67 % 999,5 hPa 0,0 l/m 0 min 2 min 208 W/m 58,6 km/h (7 Bft)
31.03.2015 13:02 10,7 C 8,9 C 68 % 999,5 hPa 0,0 l/m 0 min 0 min 191 W/m 54,4 km/h (7 Bft)
31.03.2015 13:04 10,6 C 8,9 C 69 % 999,6 hPa 0,0 l/m 0 min 2 min 149 W/m 48,1 km/h (6 Bft)
31.03.2015 13:06 10,5 C 8,3 C 70 % 999,7 hPa 0,0 l/m 0 min 2 min 138 W/m 50,2 km/h (7 Bft)
31.03.2015 13:08 10,4 C 9,4 C 71 % 999,8 hPa 0,0 l/m 2 min 0 min 593 W/m 33,5 km/h (5 Bft)
31.03.2015 13:10 10,4 C 9,4 C 73 % 999,7 hPa 0,0 l/m 2 min 0 min 868 W/m 52,3 km/h (7 Bft)
31.03.2015 13:12 10,4 C 9,4 C 71 % 999,9 hPa 0,0 l/m 0 min 0 min 254 W/m 52,3 km/h (7 Bft)
31.03.2015 13:14 10,3 C 9,4 C 71 % 999,9 hPa 0,0 l/m 0 min 0 min 203 W/m 52,3 km/h (7 Bft)
31.03.2015 13:16 10,4 C 9,4 C 72 % 999,9 hPa 0,0 l/m 2 min 0 min 432 W/m 58,6 km/h (7 Bft)
31.03.2015 13:18 10,5 C 10,0 C 72 % 999,8 hPa 0,0 l/m 2 min 0 min 808 W/m 52,3 km/h (7 Bft)
31.03.2015 13:20 10,7 C 10,6 C 72 % 999,9 hPa 0,0 l/m 2 min 0 min 813 W/m 39,7 km/h (6 Bft)
31.03.2015 13:22 10,9 C 10,6 C 72 % 1000,0 hPa 0,0 l/m 2 min 0 min 807 W/m 39,7 km/h (6 Bft)
31.03.2015 13:24 11,1 C 10,6 C 71 % 1000,1 hPa 0,0 l/m 2 min 0 min 771 W/m 62,8 km/h (8 Bft)
31.03.2015 13:26 11,2 C 11,1 C 70 % 1000,1 hPa 0,0 l/m 2 min 0 min 758 W/m 43,9 km/h (6 Bft)
31.03.2015 13:28 11,4 C 11,1 C 69 % 999,9 hPa 0,0 l/m 2 min 0 min 790 W/m 58,6 km/h (7 Bft)
31.03.2015 13:30 11,6 C 11,1 C 68 % 1000,1 hPa 0,0 l/m 2 min 0 min 812 W/m 62,8 km/h (8 Bft)
31.03.2015 13:32 11,7 C 11,7 C 68 % 1000,1 hPa 0,0 l/m 2 min 0 min 842 W/m 52,3 km/h (7 Bft)
31.03.2015 13:34 11,8 C 11,7 C 66 % 1000,4 hPa 0,0 l/m 2 min 0 min 849 W/m 58,6 km/h (7 Bft)
31.03.2015 13:36 12,0 C 11,7 C 66 % 1000,1 hPa 0,0 l/m 2 min 0 min 887 W/m 62,8 km/h (8 Bft)
31.03.2015 13:38 12,1 C 11,1 C 65 % 1000,1 hPa 0,0 l/m 2 min 0 min 657 W/m 50,2 km/h (7 Bft)
31.03.2015 13:40 12,1 C 11,7 C 64 % 1000,4 hPa 0,0 l/m 2 min 0 min 810 W/m 66,9 km/h (8 Bft)
31.03.2015 13:42 12,2 C 11,7 C 64 % 1000,5 hPa 0,0 l/m 2 min 0 min 812 W/m 48,1 km/h (6 Bft)
31.03.2015 13:44 12,3 C 11,7 C 65 % 1000,5 hPa 0,0 l/m 2 min 0 min 816 W/m 33,5 km/h (5 Bft)
31.03.2015 13:46 12,4 C 11,7 C 64 % 1000,5 hPa 0,0 l/m 2 min 0 min 819 W/m 83,7 km/h (9 Bft)
31.03.2015 13:48 12,4 C 11,1 C 61 % 1000,2 hPa 0,0 l/m 2 min 0 min 816 W/m 71,1 km/h (8 Bft)
31.03.2015 13:50 12,4 C 11,7 C 62 % 1000,6 hPa 0,0 l/m 2 min 0 min 789 W/m 46,0 km/h (6 Bft)
31.03.2015 13:52 12,4 C 11,7 C 61 % 1000,7 hPa 0,0 l/m 2 min 0 min 822 W/m 66,9 km/h (8 Bft)
31.03.2015 13:54 12,5 C 11,7 C 61 % 1000,9 hPa 0,0 l/m 2 min 0 min 853 W/m 52,3 km/h (7 Bft)
31.03.2015 13:56 12,4 C 11,1 C 60 % 1001,0 hPa 0,0 l/m 2 min 0 min 657 W/m 54,4 km/h (7 Bft)
31.03.2015 13:58 12,4 C 11,1 C 61 % 1001,0 hPa 0,0 l/m 0 min 0 min 234 W/m 46,0 km/h (6 Bft)
31.03.2015 14:00 12,2 C 10,6 C 60 % 1001,1 hPa 0,0 l/m 0 min 0 min 202 W/m 56,5 km/h (7 Bft)
31.03.2015 14:02 12,1 C 10,6 C 61 % 1001,2 hPa 0,0 l/m 0 min 0 min 165 W/m 50,2 km/h (7 Bft)
31.03.2015 14:04 11,9 C 10,6 C 62 % 1001,3 hPa 0,0 l/m 0 min 0 min 232 W/m 54,4 km/h (7 Bft)
31.03.2015 14:06 11,8 C 10,6 C 61 % 1001,3 hPa 0,0 l/m 0 min 0 min 291 W/m 41,8 km/h (6 Bft)
31.03.2015 14:08 11,8 C 11,1 C 63 % 1001,3 hPa 0,0 l/m 2 min 0 min 459 W/m 48,1 km/h (6 Bft)
31.03.2015 14:10 11,7 C 10,6 C 62 % 1001,4 hPa 0,0 l/m 0 min 2 min 275 W/m 58,6 km/h (7 Bft)
31.03.2015 14:12 11,7 C 11,1 C 63 % 1001,4 hPa 0,0 l/m 0 min 2 min 230 W/m 73,2 km/h (8 Bft)
31.03.2015 14:14 11,8 C 11,7 C 63 % 1001,4 hPa 0,0 l/m 2 min 0 min 755 W/m 50,2 km/h (7 Bft)
31.03.2015 14:16 11,9 C 12,8 C 64 % 1001,5 hPa 0,0 l/m 2 min 2 min 931 W/m 48,1 km/h (6 Bft)
31.03.2015 14:18 12,2 C 12,8 C 63 % 1001,4 hPa 0,0 l/m 2 min 0 min 769 W/m 46,0 km/h (6 Bft)
31.03.2015 14:20 12,3 C 12,8 C 63 % 1001,4 hPa 0,0 l/m 2 min 0 min 845 W/m 66,9 km/h (8 Bft)
31.03.2015 14:22 12,4 C 12,8 C 62 % 1001,5 hPa 0,0 l/m 2 min 0 min 934 W/m 58,6 km/h (7 Bft)
31.03.2015 14:24 12,6 C 12,8 C 62 % 1001,5 hPa 0,0 l/m 2 min 0 min 895 W/m 35,6 km/h (5 Bft)
31.03.2015 14:26 12,8 C 12,8 C 63 % 1001,5 hPa 0,0 l/m 2 min 0 min 859 W/m 58,6 km/h (7 Bft)
31.03.2015 14:28 12,9 C 12,2 C 61 % 1001,5 hPa 0,0 l/m 2 min 0 min 803 W/m 46,0 km/h (6 Bft)
31.03.2015 14:30 12,9 C 12,2 C 60 % 1001,6 hPa 0,0 l/m 2 min 0 min 823 W/m 52,3 km/h (7 Bft)
31.03.2015 14:32 13,0 C 12,2 C 60 % 1001,8 hPa 0,0 l/m 2 min 0 min 845 W/m 56,5 km/h (7 Bft)
31.03.2015 14:34 13,0 C 12,2 C 60 % 1001,6 hPa 0,0 l/m 2 min 0 min 836 W/m 37,7 km/h (5 Bft)
31.03.2015 14:36 13,1 C 12,2 C 59 % 1001,7 hPa 0,0 l/m 2 min 0 min 854 W/m 58,6 km/h (7 Bft)
31.03.2015 14:38 13,1 C 12,2 C 58 % 1001,6 hPa 0,0 l/m 2 min 0 min 870 W/m 75,3 km/h (9 Bft)
31.03.2015 14:40 13,1 C 12,2 C 59 % 1002,1 hPa 0,0 l/m 2 min 0 min 836 W/m 50,2 km/h (7 Bft)
31.03.2015 14:42 13,1 C 12,2 C 59 % 1002,0 hPa 0,0 l/m 2 min 0 min 806 W/m 54,4 km/h (7 Bft)
31.03.2015 14:44 13,1 C 12,2 C 58 % 1002,1 hPa 0,0 l/m 2 min 0 min 800 W/m 60,7 km/h (7 Bft)
31.03.2015 14:46 13,1 C 12,2 C 59 % 1002,2 hPa 0,0 l/m 2 min 0 min 686 W/m 50,2 km/h (7 Bft)
31.03.2015 14:48 12,9 C 11,1 C 58 % 1002,3 hPa 0,0 l/m 0 min 0 min 308 W/m 54,4 km/h (7 Bft)
31.03.2015 14:50 12,6 C 11,1 C 58 % 1002,5 hPa 0,0 l/m 2 min 0 min 366 W/m 52,3 km/h (7 Bft)
31.03.2015 14:52 12,5 C 11,7 C 59 % 1002,3 hPa 0,0 l/m 2 min 0 min 748 W/m 48,1 km/h (6 Bft)
31.03.2015 14:54 12,4 C 11,7 C 58 % 1002,4 hPa 0,0 l/m 2 min 0 min 722 W/m 64,9 km/h (8 Bft)
31.03.2015 14:56 12,3 C 11,7 C 59 % 1002,5 hPa 0,0 l/m 2 min 0 min 362 W/m 50,2 km/h (7 Bft)
31.03.2015 14:58 12,3 C 12,2 C 59 % 1002,4 hPa 0,0 l/m 2 min 0 min 332 W/m 56,5 km/h (7 Bft)
31.03.2015 15:00 12,2 C 11,7 C 58 % 1002,4 hPa 0,0 l/m 0 min 0 min 251 W/m 75,3 km/h (9 Bft)
31.03.2015 15:02 12,1 C 10,0 C 58 % 1002,5 hPa 0,0 l/m 0 min 2 min 189 W/m 93,2 km/h (10 Bft)
31.03.2015 15:04 11,9 C 9,4 C 58 % 1002,7 hPa 0,0 l/m 0 min 2 min 190 W/m 87,9 km/h (9 Bft)
31.03.2015 15:06 11,8 C 9,4 C 59 % 1002,7 hPa 0,0 l/m 0 min 2 min 196 W/m 62,8 km/h (8 Bft)
31.03.2015 15:08 11,6 C 9,4 C 59 % 1003,0 hPa 0,0 l/m 0 min 2 min 182 W/m 60,7 km/h (7 Bft)
31.03.2015 15:10 11,4 C 9,4 C 58 % 1003,1 hPa 0,0 l/m 0 min 2 min 214 W/m 71,1 km/h (8 Bft)
31.03.2015 15:12 11,3 C 10,0 C 58 % 1002,9 hPa 0,0 l/m 0 min 2 min 261 W/m 64,9 km/h (8 Bft)
31.03.2015 15:14 11,2 C 11,7 C 58 % 1003,1 hPa 0,0 l/m 0 min 2 min 266 W/m 43,9 km/h (6 Bft)
31.03.2015 15:16 11,3 C 13,9 C 59 % 1003,0 hPa 0,0 l/m 2 min 0 min 834 W/m 52,3 km/h (7 Bft)
31.03.2015 15:18 11,3 C 12,2 C 59 % 1003,0 hPa 0,0 l/m 2 min 0 min 643 W/m 48,1 km/h (6 Bft)
31.03.2015 15:20 11,4 C 12,2 C 59 % 1003,4 hPa 0,0 l/m 0 min 0 min 194 W/m 56,5 km/h (7 Bft)
31.03.2015 15:22 11,4 C 11,7 C 58 % 1003,0 hPa 0,0 l/m 0 min 0 min 263 W/m 43,9 km/h (6 Bft)
31.03.2015 15:24 11,4 C 11,7 C 57 % 1003,0 hPa 0,0 l/m 0 min 0 min 220 W/m 60,7 km/h (7 Bft)
31.03.2015 15:26 11,4 C 12,8 C 58 % 1003,2 hPa 0,0 l/m 2 min 0 min 422 W/m 50,2 km/h (7 Bft)
31.03.2015 15:28 11,6 C 14,4 C 58 % 1003,2 hPa 0,0 l/m 2 min 0 min 730 W/m 43,9 km/h (6 Bft)
31.03.2015 15:30 11,7 C 13,9 C 58 % 1003,4 hPa 0,0 l/m 2 min 0 min 728 W/m 60,7 km/h (7 Bft)
31.03.2015 15:32 11,7 C 12,2 C 57 % 1003,3 hPa 0,0 l/m 2 min 0 min 470 W/m 62,8 km/h (8 Bft)
31.03.2015 15:34 11,7 C 11,1 C 57 % 1003,2 hPa 0,0 l/m 0 min 0 min 129 W/m 43,9 km/h (6 Bft)
31.03.2015 15:36 11,6 C 10,6 C 56 % 1003,4 hPa 0,0 l/m 0 min 0 min 128 W/m 50,2 km/h (7 Bft)
31.03.2015 15:38 11,6 C 11,1 C 57 % 1003,5 hPa 0,0 l/m 0 min 2 min 224 W/m 64,9 km/h (8 Bft)
31.03.2015 15:40 11,6 C 11,7 C 57 % 1003,4 hPa 0,0 l/m 2 min 0 min 296 W/m 43,9 km/h (6 Bft)
31.03.2015 15:42 11,6 C 11,7 C 57 % 1003,5 hPa 0,0 l/m 0 min 0 min 289 W/m 43,9 km/h (6 Bft)
31.03.2015 15:44 11,6 C 11,1 C 57 % 1003,6 hPa 0,0 l/m 0 min 0 min 198 W/m 58,6 km/h (7 Bft)
31.03.2015 15:46 11,6 C 10,6 C 57 % 1003,5 hPa 0,0 l/m 0 min 2 min 214 W/m 56,5 km/h (7 Bft)
31.03.2015 15:48 11,5 C 10,6 C 56 % 1003,6 hPa 0,0 l/m 0 min 0 min 193 W/m 58,6 km/h (7 Bft)
31.03.2015 15:50 11,4 C 10,0 C 56 % 1003,8 hPa 0,0 l/m 0 min 2 min 181 W/m 71,1 km/h (8 Bft)
31.03.2015 15:52 11,3 C 10,0 C 56 % 1003,8 hPa 0,0 l/m 0 min 0 min 133 W/m 52,3 km/h (7 Bft)
31.03.2015 15:54 11,2 C 10,0 C 56 % 1004,1 hPa 0,0 l/m 0 min 0 min 149 W/m 71,1 km/h (8 Bft)
31.03.2015 15:56 11,2 C 10,0 C 57 % 1003,9 hPa 0,0 l/m 0 min 2 min 261 W/m 56,5 km/h (7 Bft)
31.03.2015 15:58 11,1 C 10,0 C 57 % 1004,1 hPa 0,0 l/m 0 min 0 min 238 W/m 69,0 km/h (8 Bft)
31.03.2015 16:00 11,0 C 10,0 C 57 % 1004,2 hPa 0,0 l/m 0 min 0 min 159 W/m 52,3 km/h (7 Bft)
31.03.2015 16:02 10,9 C 10,0 C 58 % 1004,1 hPa 0,0 l/m 0 min 0 min 145 W/m 46,0 km/h (6 Bft)
31.03.2015 16:04 10,8 C 9,4 C 58 % 1004,2 hPa 0,0 l/m 0 min 0 min 126 W/m 41,8 km/h (6 Bft)
31.03.2015 16:06 10,8 C 9,4 C 59 % 1004,4 hPa 0,0 l/m 0 min 0 min 106 W/m 48,1 km/h (6 Bft)
31.03.2015 16:08 10,7 C 9,4 C 60 % 1004,6 hPa 0,0 l/m 0 min 0 min 120 W/m 46,0 km/h (6 Bft)
31.03.2015 16:10 10,7 C 10,0 C 60 % 1004,4 hPa 0,0 l/m 0 min 0 min 232 W/m 50,2 km/h (7 Bft)
31.03.2015 16:12 10,8 C 11,1 C 60 % 1004,6 hPa 0,0 l/m 2 min 0 min 587 W/m 43,9 km/h (6 Bft)
31.03.2015 16:14 10,8 C 11,7 C 59 % 1004,7 hPa 0,0 l/m 2 min 0 min 340 W/m 43,9 km/h (6 Bft)
31.03.2015 16:16 10,9 C 12,2 C 58 % 1004,6 hPa 0,0 l/m 2 min 0 min 418 W/m 52,3 km/h (7 Bft)
31.03.2015 16:18 11,0 C 11,7 C 56 % 1004,7 hPa 0,0 l/m 2 min 0 min 560 W/m 50,2 km/h (7 Bft)
31.03.2015 16:20 11,1 C 11,1 C 56 % 1004,6 hPa 0,0 l/m 0 min 0 min 107 W/m 35,6 km/h (5 Bft)
31.03.2015 16:22 11,1 C 11,7 C 57 % 1004,7 hPa 0,0 l/m 0 min 0 min 98 W/m 43,9 km/h (6 Bft)
31.03.2015 16:24 11,1 C 11,1 C 56 % 1004,6 hPa 0,0 l/m 0 min 0 min 143 W/m 43,9 km/h (6 Bft)
31.03.2015 16:26 11,1 C 10,6 C 56 % 1004,6 hPa 0,0 l/m 0 min 0 min 143 W/m 33,5 km/h (5 Bft)
31.03.2015 16:28 11,1 C 10,0 C 57 % 1004,8 hPa 0,0 l/m 0 min 0 min 111 W/m 35,6 km/h (5 Bft)
31.03.2015 16:30 11,1 C 10,0 C 57 % 1004,7 hPa 0,0 l/m 0 min 0 min 136 W/m 54,4 km/h (7 Bft)
31.03.2015 16:32 11,0 C 10,0 C 57 % 1004,9 hPa 0,0 l/m 0 min 0 min 168 W/m 33,5 km/h (5 Bft)
31.03.2015 16:34 10,9 C 10,0 C 57 % 1004,8 hPa 0,0 l/m 0 min 0 min 188 W/m 43,9 km/h (6 Bft)
31.03.2015 16:36 10,9 C 10,0 C 56 % 1004,8 hPa 0,0 l/m 0 min 0 min 159 W/m 48,1 km/h (6 Bft)
31.03.2015 16:38 10,9 C 10,0 C 57 % 1005,0 hPa 0,0 l/m 0 min 0 min 125 W/m 37,7 km/h (5 Bft)
31.03.2015 16:40 10,8 C 10,0 C 56 % 1004,9 hPa 0,0 l/m 0 min 0 min 125 W/m 52,3 km/h (7 Bft)
31.03.2015 16:42 10,9 C 10,0 C 56 % 1005,1 hPa 0,0 l/m 0 min 0 min 137 W/m 46,0 km/h (6 Bft)
31.03.2015 16:44 10,8 C 10,0 C 56 % 1005,2 hPa 0,0 l/m 0 min 0 min 157 W/m 46,0 km/h (6 Bft)
31.03.2015 16:46 10,8 C 10,0 C 54 % 1005,2 hPa 0,0 l/m 0 min 0 min 147 W/m 60,7 km/h (7 Bft)
31.03.2015 16:48 10,8 C 10,0 C 56 % 1005,0 hPa 0,0 l/m 0 min 0 min 173 W/m 41,8 km/h (6 Bft)
31.03.2015 16:50 10,8 C 10,0 C 56 % 1005,1 hPa 0,0 l/m 0 min 0 min 170 W/m 46,0 km/h (6 Bft)
31.03.2015 16:52 10,8 C 10,0 C 56 % 1005,2 hPa 0,0 l/m 0 min 0 min 148 W/m 35,6 km/h (5 Bft)
31.03.2015 16:54 10,8 C 10,0 C 56 % 1005,2 hPa 0,0 l/m 0 min 0 min 106 W/m 43,9 km/h (6 Bft)
31.03.2015 16:56 10,8 C 10,0 C 56 % 1005,3 hPa 0,0 l/m 0 min 0 min 105 W/m 50,2 km/h (7 Bft)
31.03.2015 16:58 10,9 C 10,6 C 55 % 1005,2 hPa 0,0 l/m 0 min 0 min 105 W/m 54,4 km/h (7 Bft)
31.03.2015 17:00 10,9 C 11,1 C 56 % 1005,2 hPa 0,0 l/m 0 min 0 min 105 W/m 37,7 km/h (5 Bft)
31.03.2015 17:02 11,1 C 11,7 C 56 % 1005,4 hPa 0,0 l/m 0 min 0 min 105 W/m 60,7 km/h (7 Bft)
31.03.2015 17:04 11,2 C 11,7 C 55 % 1005,4 hPa 0,0 l/m 0 min 0 min 105 W/m 64,9 km/h (8 Bft)
31.03.2015 17:06 11,4 C 11,7 C 55 % 1005,3 hPa 0,0 l/m 0 min 0 min 105 W/m 52,3 km/h (7 Bft)
31.03.2015 17:08 11,4 C 11,1 C 54 % 1005,5 hPa 0,0 l/m 0 min 0 min 186 W/m 60,7 km/h (7 Bft)
31.03.2015 17:10 11,5 C 10,6 C 54 % 1005,5 hPa 0,0 l/m 2 min 0 min 396 W/m 52,3 km/h (7 Bft)
31.03.2015 17:12 11,4 C 10,6 C 54 % 1005,5 hPa 0,0 l/m 0 min 0 min 122 W/m 52,3 km/h (7 Bft)
31.03.2015 17:14 11,4 C 10,0 C 54 % 1005,4 hPa 0,0 l/m 0 min 0 min 143 W/m 39,7 km/h (6 Bft)
31.03.2015 17:16 11,3 C 10,0 C 55 % 1005,4 hPa 0,0 l/m 0 min 0 min 154 W/m 41,8 km/h (6 Bft)
31.03.2015 17:18 11,2 C 10,0 C 54 % 1005,4 hPa 0,0 l/m 0 min 0 min 137 W/m 62,8 km/h (8 Bft)
31.03.2015 17:20 11,1 C 9,4 C 54 % 1005,5 hPa 0,0 l/m 0 min 0 min 99 W/m 48,1 km/h (6 Bft)
31.03.2015 17:22 11,1 C 9,4 C 55 % 1005,6 hPa 0,0 l/m 0 min 2 min 68 W/m 33,5 km/h (5 Bft)
31.03.2015 17:24 11,0 C 9,4 C 56 % 1005,6 hPa 0,0 l/m 0 min 0 min 52 W/m 39,7 km/h (6 Bft)
31.03.2015 17:26 10,9 C 8,9 C 56 % 1005,5 hPa 0,0 l/m 0 min 2 min 37 W/m 50,2 km/h (7 Bft)
31.03.2015 17:28 10,8 C 8,3 C 58 % 1005,8 hPa 0,0 l/m 0 min 2 min 40 W/m 52,3 km/h (7 Bft)
31.03.2015 17:30 10,6 C 7,8 C 61 % 1005,9 hPa 0,0 l/m 0 min 2 min 49 W/m 52,3 km/h (7 Bft)
31.03.2015 17:32 10,4 C 7,8 C 62 % 1005,9 hPa 0,0 l/m 0 min 2 min 54 W/m 39,7 km/h (6 Bft)
31.03.2015 17:34 10,3 C 7,8 C 63 % 1005,9 hPa 0,0 l/m 0 min 2 min 60 W/m 35,6 km/h (5 Bft)
31.03.2015 17:36 10,2 C 7,2 C 64 % 1006,2 hPa 0,0 l/m 0 min 2 min 73 W/m 52,3 km/h (7 Bft)
31.03.2015 17:38 10,0 C 6,7 C 66 % 1005,9 hPa 0,0 l/m 0 min 2 min 143 W/m 56,5 km/h (7 Bft)
31.03.2015 17:40 9,8 C 6,1 C 67 % 1005,9 hPa 0,0 l/m 0 min 2 min 106 W/m 52,3 km/h (7 Bft)
31.03.2015 17:42 9,7 C 6,1 C 67 % 1005,8 hPa 0,0 l/m 0 min 2 min 78 W/m 48,1 km/h (6 Bft)
31.03.2015 17:44 9,5 C 6,7 C 68 % 1005,8 hPa 0,0 l/m 0 min 0 min 83 W/m 39,7 km/h (6 Bft)
31.03.2015 17:46 9,5 C 6,7 C 69 % 1005,7 hPa 0,0 l/m 2 min 0 min 223 W/m 31,4 km/h (5 Bft)
31.03.2015 17:48 9,4 C 7,2 C 69 % 1005,9 hPa 0,0 l/m 0 min 0 min 120 W/m 50,2 km/h (7 Bft)
31.03.2015 17:50 9,4 C 7,8 C 67 % 1005,9 hPa 0,0 l/m 0 min 0 min 149 W/m 54,4 km/h (7 Bft)
31.03.2015 17:52 9,5 C 8,3 C 67 % 1005,9 hPa 0,0 l/m 0 min 0 min 157 W/m 52,3 km/h (7 Bft)
31.03.2015 17:54 9,6 C 8,3 C 66 % 1005,7 hPa 0,0 l/m 0 min 2 min 118 W/m 37,7 km/h (5 Bft)
31.03.2015 17:56 9,7 C 8,3 C 66 % 1005,8 hPa 0,0 l/m 0 min 2 min 99 W/m 41,8 km/h (6 Bft)
31.03.2015 17:58 9,7 C 8,3 C 65 % 1006,0 hPa 0,0 l/m 0 min 2 min 79 W/m 31,4 km/h (5 Bft)
31.03.2015 18:00 9,7 C 8,3 C 66 % 1005,8 hPa 0,0 l/m 0 min 0 min 61 W/m 33,5 km/h (5 Bft)
31.03.2015 18:02 9,7 C 8,3 C 65 % 1005,6 hPa 0,0 l/m 0 min 0 min 48 W/m 35,6 km/h (5 Bft)
31.03.2015 18:06 9,8 C 8,3 C 65 % 1006,0 hPa 0,0 l/m 0 min 0 min 38 W/m 41,8 km/h (6 Bft)
31.03.2015 18:08 9,8 C 8,3 C 65 % 1005,8 hPa 0,0 l/m 0 min 2 min 38 W/m 33,5 km/h (5 Bft)
31.03.2015 18:10 9,8 C 7,8 C 64 % 1005,9 hPa 0,0 l/m 0 min 2 min 33 W/m 62,8 km/h (8 Bft)
31.03.2015 18:12 9,8 C 7,8 C 63 % 1005,8 hPa 0,0 l/m 0 min 2 min 32 W/m 41,8 km/h (6 Bft)
31.03.2015 18:14 9,8 C 8,3 C 63 % 1006,0 hPa 0,0 l/m 0 min 2 min 33 W/m 64,9 km/h (8 Bft)
31.03.2015 18:16 9,9 C 7,8 C 64 % 1006,0 hPa 0,0 l/m 0 min 2 min 51 W/m 43,9 km/h (6 Bft)
31.03.2015 18:18 9,8 C 8,3 C 64 % 1006,0 hPa 0,0 l/m 0 min 2 min 114 W/m 54,4 km/h (7 Bft)
31.03.2015 18:20 9,9 C 8,3 C 64 % 1006,0 hPa 0,0 l/m 2 min 2 min 188 W/m 39,7 km/h (6 Bft)
31.03.2015 18:22 9,9 C 8,9 C 64 % 1006,1 hPa 0,0 l/m 2 min 0 min 184 W/m 43,9 km/h (6 Bft)
31.03.2015 18:24 9,9 C 8,9 C 64 % 1006,0 hPa 0,0 l/m 0 min 0 min 117 W/m 48,1 km/h (6 Bft)
31.03.2015 18:26 9,9 C 8,3 C 63 % 1006,1 hPa 0,0 l/m 0 min 2 min 72 W/m 46,0 km/h (6 Bft)
31.03.2015 18:28 9,9 C 8,3 C 64 % 1006,1 hPa 0,0 l/m 0 min 0 min 55 W/m 37,7 km/h (5 Bft)
31.03.2015 18:30 9,8 C 8,9 C 64 % 1005,9 hPa 0,0 l/m 0 min 2 min 90 W/m 39,7 km/h (6 Bft)
31.03.2015 18:32 9,9 C 8,9 C 63 % 1005,9 hPa 0,0 l/m 2 min 0 min 147 W/m 39,7 km/h (6 Bft)
31.03.2015 18:34 9,9 C 8,9 C 64 % 1006,1 hPa 0,0 l/m 2 min 0 min 159 W/m 27,2 km/h (4 Bft)
31.03.2015 18:36 9,9 C 9,4 C 64 % 1006,1 hPa 0,0 l/m 2 min 0 min 239 W/m 33,5 km/h (5 Bft)
31.03.2015 18:38 10,0 C 9,4 C 63 % 1006,2 hPa 0,0 l/m 2 min 0 min 138 W/m 41,8 km/h (6 Bft)
31.03.2015 18:40 10,1 C 8,9 C 62 % 1006,1 hPa 0,0 l/m 0 min 0 min 61 W/m 48,1 km/h (6 Bft)
31.03.2015 18:42 10,1 C 8,9 C 61 % 1006,1 hPa 0,0 l/m 0 min 0 min 41 W/m 43,9 km/h (6 Bft)
31.03.2015 18:44 10,1 C 8,3 C 62 % 1006,1 hPa 0,0 l/m 0 min 0 min 33 W/m 50,2 km/h (7 Bft)
31.03.2015 18:46 10,1 C 8,3 C 62 % 1006,1 hPa 0,0 l/m 0 min 0 min 32 W/m 54,4 km/h (7 Bft)
31.03.2015 18:48 10,0 C 8,3 C 62 % 1006,1 hPa 0,0 l/m 0 min 0 min 32 W/m 41,8 km/h (6 Bft)
31.03.2015 18:50 10,0 C 8,3 C 62 % 1006,1 hPa 0,0 l/m 0 min 0 min 32 W/m 35,6 km/h (5 Bft)
31.03.2015 18:52 10,0 C 8,3 C 62 % 1006,1 hPa 0,0 l/m 0 min 0 min 32 W/m 41,8 km/h (6 Bft)
31.03.2015 18:54 9,9 C 8,3 C 62 % 1006,1 hPa 0,0 l/m 0 min 0 min 40 W/m 41,8 km/h (6 Bft)
31.03.2015 18:56 9,9 C 8,3 C 63 % 1006,1 hPa 0,0 l/m 0 min 0 min 42 W/m 25,1 km/h (4 Bft)
31.03.2015 18:58 9,9 C 8,3 C 63 % 1006,1 hPa 0,0 l/m 0 min 0 min 40 W/m 27,2 km/h (4 Bft)
31.03.2015 19:00 9,8 C 8,3 C 63 % 1006,2 hPa 0,0 l/m 0 min 0 min 39 W/m 33,5 km/h (5 Bft)
31.03.2015 19:02 9,8 C 8,3 C 64 % 1006,3 hPa 0,0 l/m 0 min 0 min 42 W/m 37,7 km/h (5 Bft)
31.03.2015 19:04 9,8 C 8,3 C 64 % 1006,4 hPa 0,0 l/m 0 min 0 min 40 W/m 23,0 km/h (4 Bft)
31.03.2015 19:06 9,8 C 8,3 C 64 % 1006,4 hPa 0,0 l/m 0 min 0 min 33 W/m 31,4 km/h (5 Bft)
31.03.2015 19:08 9,8 C 8,3 C 64 % 1006,5 hPa 0,0 l/m 0 min 0 min 32 W/m 29,3 km/h (5 Bft)
31.03.2015 19:10 9,8 C 8,3 C 65 % 1006,5 hPa 0,0 l/m 0 min 0 min 33 W/m 33,5 km/h (5 Bft)
31.03.2015 19:12 9,8 C 8,3 C 65 % 1006,6 hPa 0,0 l/m 0 min 0 min 29 W/m 37,7 km/h (5 Bft)
31.03.2015 19:14 9,8 C 8,3 C 65 % 1006,6 hPa 0,0 l/m 0 min 0 min 22 W/m 27,2 km/h (4 Bft)
31.03.2015 19:16 9,7 C 8,3 C 65 % 1006,6 hPa 0,0 l/m 0 min 0 min 14 W/m 35,6 km/h (5 Bft)
31.03.2015 19:18 9,7 C 7,8 C 66 % 1006,6 hPa 0,0 l/m 0 min 2 min 9 W/m 31,4 km/h (5 Bft)
31.03.2015 19:20 9,7 C 7,8 C 66 % 1006,6 hPa 0,0 l/m 0 min 2 min 7 W/m 37,7 km/h (5 Bft)
31.03.2015 19:22 9,7 C 7,2 C 67 % 1006,7 hPa 0,0 l/m 0 min 2 min 8 W/m 29,3 km/h (5 Bft)
31.03.2015 19:24 9,6 C 7,2 C 67 % 1006,7 hPa 0,0 l/m 0 min 2 min 6 W/m 33,5 km/h (5 Bft)
31.03.2015 19:26 9,6 C 6,7 C 68 % 1006,7 hPa 0,0 l/m 0 min 2 min 5 W/m 35,6 km/h (5 Bft)
31.03.2015 19:28 9,5 C 6,1 C 68 % 1006,6 hPa 0,0 l/m 0 min 2 min 6 W/m 35,6 km/h (5 Bft)
31.03.2015 19:30 9,4 C 6,1 C 69 % 1006,5 hPa 0,0 l/m 0 min 2 min 5 W/m 27,2 km/h (4 Bft)
31.03.2015 19:32 9,3 C 6,1 C 69 % 1006,6 hPa 0,0 l/m 0 min 2 min 5 W/m 29,3 km/h (5 Bft)
31.03.2015 19:34 9,2 C 6,1 C 70 % 1006,6 hPa 0,0 l/m 0 min 2 min 4 W/m 29,3 km/h (5 Bft)
31.03.2015 19:36 9,1 C 5,6 C 71 % 1006,6 hPa 0,0 l/m 0 min 2 min 0 W/m 25,1 km/h (4 Bft)
31.03.2015 19:38 9,1 C 5,6 C 72 % 1006,8 hPa 0,2 l/m 0 min 2 min 0 W/m 20,9 km/h (4 Bft)
31.03.2015 19:40 9,0 C 5,0 C 73 % 1006,8 hPa 0,0 l/m 0 min 2 min 0 W/m 25,1 km/h (4 Bft)
31.03.2015 19:42 8,9 C 5,0 C 73 % 1006,9 hPa 0,0 l/m 0 min 2 min 0 W/m 14,6 km/h (3 Bft)
31.03.2015 19:44 8,8 C 5,0 C 74 % 1006,8 hPa 0,0 l/m 0 min 2 min 5 W/m 20,9 km/h (4 Bft)
31.03.2015 19:46 8,7 C 5,6 C 75 % 1007,1 hPa 0,0 l/m 0 min 2 min 9 W/m 33,5 km/h (5 Bft)
31.03.2015 19:48 8,6 C 5,0 C 73 % 1007,3 hPa 0,0 l/m 0 min 2 min 13 W/m 75,3 km/h (9 Bft)
31.03.2015 19:50 8,4 C 4,4 C 72 % 1007,5 hPa 0,0 l/m 2 min 2 min 17 W/m 73,2 km/h (8 Bft)
31.03.2015 19:52 8,2 C 4,4 C 72 % 1007,7 hPa 0,0 l/m 2 min 2 min 16 W/m 54,4 km/h (7 Bft)
31.03.2015 19:54 8,1 C 4,4 C 73 % 1007,6 hPa 0,0 l/m 2 min 2 min 12 W/m 48,1 km/h (6 Bft)
31.03.2015 19:56 7,9 C 4,4 C 73 % 1007,5 hPa 0,2 l/m 0 min 2 min 10 W/m 46,0 km/h (6 Bft)
31.03.2015 19:58 7,7 C 4,4 C 73 % 1007,4 hPa 0,0 l/m 0 min 2 min 8 W/m 46,0 km/h (6 Bft)
31.03.2015 20:00 7,6 C 4,4 C 74 % 1007,4 hPa 0,0 l/m 0 min 2 min 7 W/m 48,1 km/h (6 Bft)
31.03.2015 20:02 7,4 C 4,4 C 74 % 1007,5 hPa 0,0 l/m 0 min 2 min 7 W/m 33,5 km/h (5 Bft)
31.03.2015 20:04 7,3 C 4,4 C 75 % 1007,5 hPa 0,0 l/m 0 min 0 min 7 W/m 39,7 km/h (6 Bft)
31.03.2015 20:06 7,2 C 4,4 C 75 % 1007,6 hPa 0,0 l/m 0 min 0 min 5 W/m 46,0 km/h (6 Bft)
31.03.2015 20:08 7,1 C 4,4 C 75 % 1007,7 hPa 0,0 l/m 0 min 2 min 5 W/m 35,6 km/h (5 Bft)
31.03.2015 20:10 7,0 C 4,4 C 75 % 1007,8 hPa 0,0 l/m 0 min 0 min 0 W/m 29,3 km/h (5 Bft)
31.03.2015 20:12 6,9 C 4,4 C 75 % 1007,8 hPa 0,0 l/m 0 min 0 min 0 W/m 46,0 km/h (6 Bft)
31.03.2015 20:14 6,9 C 4,4 C 76 % 1007,9 hPa 0,0 l/m 0 min 0 min 0 W/m 46,0 km/h (6 Bft)
31.03.2015 20:16 6,8 C 4,4 C 76 % 1007,9 hPa 0,0 l/m 0 min 0 min 0 W/m 29,3 km/h (5 Bft)
31.03.2015 20:18 6,8 C 4,4 C 76 % 1007,8 hPa 0,0 l/m 0 min 0 min 0 W/m 31,4 km/h (5 Bft)
31.03.2015 20:20 6,7 C 4,4 C 76 % 1007,8 hPa 0,0 l/m 0 min 0 min 0 W/m 33,5 km/h (5 Bft)
31.03.2015 20:22 6,7 C 4,4 C 76 % 1008,0 hPa 0,0 l/m 0 min 0 min 0 W/m 27,2 km/h (4 Bft)
31.03.2015 20:24 6,7 C 4,4 C 76 % 1008,1 hPa 0,0 l/m 0 min 2 min 0 W/m 35,6 km/h (5 Bft)
31.03.2015 20:26 6,7 C 4,4 C 76 % 1008,1 hPa 0,0 l/m 0 min 0 min 0 W/m 29,3 km/h (5 Bft)
31.03.2015 20:28 6,6 C 4,4 C 76 % 1008,1 hPa 0,0 l/m 0 min 0 min 0 W/m 39,7 km/h (6 Bft)
31.03.2015 20:30 6,6 C 4,4 C 76 % 1008,3 hPa 0,0 l/m 0 min 0 min 0 W/m 33,5 km/h (5 Bft)
31.03.2015 20:32 6,6 C 4,4 C 76 % 1008,2 hPa 0,0 l/m 0 min 0 min 0 W/m 33,5 km/h (5 Bft)
31.03.2015 20:34 6,6 C 4,4 C 76 % 1008,3 hPa 0,0 l/m 0 min 0 min 0 W/m 29,3 km/h (5 Bft)
31.03.2015 20:36 6,6 C 5,0 C 76 % 1008,3 hPa 0,0 l/m 0 min 0 min 0 W/m 33,5 km/h (5 Bft)
31.03.2015 20:38 6,6 C 5,0 C 76 % 1008,3 hPa 0,0 l/m 0 min 0 min 0 W/m 31,4 km/h (5 Bft)
31.03.2015 20:40 6,6 C 5,0 C 76 % 1008,4 hPa 0,0 l/m 0 min 0 min 0 W/m 27,2 km/h (4 Bft)
31.03.2015 20:42 6,6 C 5,0 C 76 % 1008,5 hPa 0,0 l/m 0 min 0 min 0 W/m 31,4 km/h (5 Bft)
31.03.2015 20:44 6,6 C 5,0 C 76 % 1008,6 hPa 0,0 l/m 0 min 0 min 0 W/m 31,4 km/h (5 Bft)
31.03.2015 20:46 6,6 C 5,0 C 77 % 1008,5 hPa 0,0 l/m 0 min 0 min 0 W/m 29,3 km/h (5 Bft)
31.03.2015 20:48 6,6 C 4,4 C 77 % 1008,7 hPa 0,0 l/m 0 min 2 min 0 W/m 29,3 km/h (5 Bft)
31.03.2015 20:50 6,6 C 3,9 C 78 % 1008,6 hPa 0,0 l/m 0 min 2 min 0 W/m 39,7 km/h (6 Bft)
31.03.2015 20:52 6,6 C 3,9 C 79 % 1008,6 hPa 0,0 l/m 0 min 2 min 0 W/m 31,4 km/h (5 Bft)
31.03.2015 20:54 6,6 C 3,9 C 80 % 1008,6 hPa 0,0 l/m 0 min 2 min 0 W/m 39,7 km/h (6 Bft)
31.03.2015 20:56 6,4 C 3,9 C 80 % 1008,6 hPa 0,0 l/m 0 min 0 min 0 W/m 37,7 km/h (5 Bft)
31.03.2015 20:58 6,4 C 3,9 C 81 % 1008,7 hPa 0,0 l/m 0 min 2 min 0 W/m 41,8 km/h (6 Bft)
31.03.2015 21:00 6,4 C 3,9 C 81 % 1008,6 hPa 0,0 l/m 0 min 0 min 0 W/m 29,3 km/h (5 Bft)
31.03.2015 21:02 6,3 C 3,9 C 81 % 1008,7 hPa 0,0 l/m 0 min 0 min 0 W/m 25,1 km/h (4 Bft)
31.03.2015 21:04 6,3 C 3,9 C 82 % 1008,6 hPa 0,0 l/m 0 min 0 min 0 W/m 25,1 km/h (4 Bft)
31.03.2015 21:06 6,2 C 3,9 C 82 % 1008,6 hPa 0,0 l/m 0 min 0 min 0 W/m 27,2 km/h (4 Bft)
31.03.2015 21:08 6,2 C 3,9 C 82 % 1008,6 hPa 0,0 l/m 0 min 0 min 0 W/m 29,3 km/h (5 Bft)
31.03.2015 21:10 6,2 C 3,9 C 82 % 1008,6 hPa 0,0 l/m 0 min 0 min 0 W/m 25,1 km/h (4 Bft)
31.03.2015 21:12 6,1 C 3,9 C 82 % 1008,6 hPa 0,0 l/m 0 min 0 min 0 W/m 27,2 km/h (4 Bft)
31.03.2015 21:14 6,1 C 3,9 C 82 % 1008,6 hPa 0,0 l/m 0 min 0 min 0 W/m 27,2 km/h (4 Bft)
31.03.2015 21:16 6,1 C 3,9 C 82 % 1008,6 hPa 0,0 l/m 0 min 0 min 0 W/m 20,9 km/h (4 Bft)
31.03.2015 21:18 6,1 C 3,9 C 82 % 1008,6 hPa 0,0 l/m 0 min 0 min 0 W/m 20,9 km/h (4 Bft)
31.03.2015 21:20 6,0 C 3,3 C 82 % 1008,6 hPa 0,0 l/m 0 min 0 min 0 W/m 16,7 km/h (3 Bft)
31.03.2015 21:22 6,0 C 3,3 C 82 % 1008,6 hPa 0,0 l/m 0 min 0 min 0 W/m 18,8 km/h (3 Bft)
31.03.2015 21:24 5,9 C 3,3 C 82 % 1008,6 hPa 0,0 l/m 0 min 0 min 0 W/m 14,6 km/h (3 Bft)
31.03.2015 21:26 5,9 C 3,3 C 82 % 1008,7 hPa 0,0 l/m 0 min 0 min 0 W/m 14,6 km/h (3 Bft)
31.03.2015 21:28 5,9 C 3,3 C 82 % 1008,6 hPa 0,0 l/m 0 min 0 min 0 W/m 23,0 km/h (4 Bft)
31.03.2015 21:30 5,9 C 3,9 C 82 % 1008,6 hPa 0,0 l/m 0 min 0 min 0 W/m 14,6 km/h (3 Bft)
31.03.2015 21:32 5,8 C 3,9 C 82 % 1008,6 hPa 0,0 l/m 0 min 0 min 0 W/m 10,5 km/h (2 Bft)
31.03.2015 21:34 5,8 C 3,9 C 82 % 1008,6 hPa 0,0 l/m 0 min 0 min 0 W/m 18,8 km/h (3 Bft)
31.03.2015 21:36 5,8 C 3,9 C 82 % 1008,7 hPa 0,0 l/m 0 min 0 min 0 W/m 18,8 km/h (3 Bft)
31.03.2015 21:38 5,8 C 3,9 C 82 % 1008,6 hPa 0,0 l/m 0 min 0 min 0 W/m 14,6 km/h (3 Bft)
31.03.2015 21:40 5,8 C 3,9 C 83 % 1008,6 hPa 0,0 l/m 0 min 0 min 0 W/m 27,2 km/h (4 Bft)
31.03.2015 21:42 5,8 C 3,9 C 83 % 1008,6 hPa 0,0 l/m 0 min 0 min 0 W/m 20,9 km/h (4 Bft)
31.03.2015 21:44 5,8 C 3,9 C 83 % 1008,6 hPa 0,0 l/m 0 min 0 min 0 W/m 16,7 km/h (3 Bft)
31.03.2015 21:46 5,8 C 3,9 C 83 % 1008,7 hPa 0,0 l/m 0 min 0 min 0 W/m 14,6 km/h (3 Bft)
31.03.2015 21:48 5,8 C 4,4 C 84 % 1008,7 hPa 0,0 l/m 0 min 0 min 0 W/m 16,7 km/h (3 Bft)
31.03.2015 21:50 5,8 C 4,4 C 84 % 1008,7 hPa 0,0 l/m 0 min 0 min 0 W/m 16,7 km/h (3 Bft)
31.03.2015 21:52 5,8 C 4,4 C 84 % 1008,7 hPa 0,0 l/m 0 min 0 min 0 W/m 12,6 km/h (3 Bft)
31.03.2015 21:54 5,8 C 4,4 C 84 % 1008,8 hPa 0,0 l/m 0 min 2 min 0 W/m 18,8 km/h (3 Bft)
31.03.2015 21:56 5,9 C 3,9 C 85 % 1008,8 hPa 0,0 l/m 0 min 2 min 0 W/m 25,1 km/h (4 Bft)
31.03.2015 21:58 5,9 C 3,9 C 85 % 1009,2 hPa 0,2 l/m 0 min 2 min 0 W/m 31,4 km/h (5 Bft)
31.03.2015 22:00 5,8 C 3,3 C 85 % 1009,6 hPa 0,2 l/m 0 min 2 min 0 W/m 62,8 km/h (8 Bft)
31.03.2015 22:02 5,7 C 2,8 C 85 % 1009,3 hPa 0,4 l/m 0 min 2 min 0 W/m 56,5 km/h (7 Bft)
31.03.2015 22:04 5,4 C 2,8 C 85 % 1009,2 hPa 0,0 l/m 0 min 2 min 0 W/m 43,9 km/h (6 Bft)
31.03.2015 22:06 5,3 C 2,8 C 86 % 1009,0 hPa 0,0 l/m 0 min 2 min 0 W/m 29,3 km/h (5 Bft)
31.03.2015 22:08 5,2 C 2,8 C 86 % 1009,1 hPa 0,2 l/m 0 min 2 min 0 W/m 35,6 km/h (5 Bft)
31.03.2015 22:10 5,1 C 2,8 C 86 % 1009,1 hPa 0,0 l/m 0 min 0 min 0 W/m 29,3 km/h (5 Bft)
31.03.2015 22:12 4,9 C 2,2 C 87 % 1009,1 hPa 0,0 l/m 0 min 0 min 0 W/m 25,1 km/h (4 Bft)
31.03.2015 22:14 4,8 C 2,2 C 87 % 1009,1 hPa 0,0 l/m 0 min 0 min 0 W/m 20,9 km/h (4 Bft)
31.03.2015 22:16 4,7 C 2,2 C 87 % 1009,1 hPa 0,0 l/m 0 min 0 min 0 W/m 20,9 km/h (4 Bft)
31.03.2015 22:18 4,6 C 2,2 C 87 % 1009,0 hPa 0,0 l/m 0 min 0 min 0 W/m 18,8 km/h (3 Bft)
31.03.2015 22:20 4,6 C 2,2 C 87 % 1009,0 hPa 0,0 l/m 0 min 0 min 0 W/m 20,9 km/h (4 Bft)
31.03.2015 22:22 4,4 C 2,2 C 88 % 1009,0 hPa 0,0 l/m 0 min 0 min 0 W/m 27,2 km/h (4 Bft)
31.03.2015 22:24 4,3 C 2,2 C 88 % 1009,1 hPa 0,0 l/m 0 min 0 min 0 W/m 20,9 km/h (4 Bft)
31.03.2015 22:26 4,2 C 2,2 C 88 % 1009,0 hPa 0,0 l/m 0 min 0 min 0 W/m 27,2 km/h (4 Bft)
31.03.2015 22:28 4,2 C 2,2 C 88 % 1009,0 hPa 0,0 l/m 0 min 0 min 0 W/m 25,1 km/h (4 Bft)
31.03.2015 22:30 4,1 C 2,2 C 88 % 1009,1 hPa 0,0 l/m 0 min 0 min 0 W/m 35,6 km/h (5 Bft)
31.03.2015 22:32 4,1 C 2,2 C 88 % 1009,0 hPa 0,0 l/m 0 min 0 min 0 W/m 27,2 km/h (4 Bft)
31.03.2015 22:34 4,0 C 2,2 C 88 % 1009,0 hPa 0,0 l/m 0 min 0 min 0 W/m 33,5 km/h (5 Bft)
31.03.2015 22:36 4,0 C 2,2 C 89 % 1009,1 hPa 0,0 l/m 0 min 0 min 0 W/m 31,4 km/h (5 Bft)
31.03.2015 22:38 3,9 C 2,2 C 89 % 1009,2 hPa 0,0 l/m 0 min 0 min 0 W/m 35,6 km/h (5 Bft)
31.03.2015 22:40 3,9 C 2,2 C 89 % 1009,1 hPa 0,0 l/m 0 min 0 min 0 W/m 33,5 km/h (5 Bft)
31.03.2015 22:42 3,9 C 2,2 C 89 % 1009,2 hPa 0,0 l/m 0 min 0 min 0 W/m 43,9 km/h (6 Bft)
31.03.2015 22:44 3,9 C 2,2 C 89 % 1009,2 hPa 0,0 l/m 0 min 0 min 0 W/m 27,2 km/h (4 Bft)
31.03.2015 22:46 3,9 C 2,2 C 88 % 1009,1 hPa 0,0 l/m 0 min 0 min 0 W/m 48,1 km/h (6 Bft)
31.03.2015 22:48 4,0 C 2,2 C 88 % 1009,2 hPa 0,0 l/m 0 min 0 min 0 W/m 37,7 km/h (5 Bft)
31.03.2015 22:50 4,0 C 2,2 C 88 % 1009,2 hPa 0,0 l/m 0 min 0 min 0 W/m 29,3 km/h (5 Bft)
31.03.2015 22:52 4,0 C 2,2 C 88 % 1009,3 hPa 0,0 l/m 0 min 0 min 0 W/m 37,7 km/h (5 Bft)
31.03.2015 22:54 4,1 C 2,2 C 88 % 1009,3 hPa 0,0 l/m 0 min 0 min 0 W/m 41,8 km/h (6 Bft)
31.03.2015 22:56 4,1 C 2,2 C 88 % 1009,3 hPa 0,0 l/m 0 min 0 min 0 W/m 41,8 km/h (6 Bft)
31.03.2015 22:58 4,1 C 2,2 C 87 % 1009,3 hPa 0,0 l/m 0 min 0 min 0 W/m 25,1 km/h (4 Bft)
31.03.2015 23:00 4,2 C 2,2 C 87 % 1009,3 hPa 0,0 l/m 0 min 0 min 0 W/m 39,7 km/h (6 Bft)
31.03.2015 23:02 4,2 C 2,2 C 87 % 1009,3 hPa 0,0 l/m 0 min 0 min 0 W/m 39,7 km/h (6 Bft)
31.03.2015 23:04 4,2 C 2,2 C 86 % 1009,3 hPa 0,0 l/m 0 min 0 min 0 W/m 52,3 km/h (7 Bft)
31.03.2015 23:06 4,2 C 2,2 C 86 % 1009,3 hPa 0,0 l/m 0 min 0 min 0 W/m 31,4 km/h (5 Bft)
31.03.2015 23:08 4,2 C 2,2 C 86 % 1009,4 hPa 0,0 l/m 0 min 0 min 0 W/m 41,8 km/h (6 Bft)
31.03.2015 23:10 4,2 C 2,2 C 85 % 1009,4 hPa 0,0 l/m 0 min 0 min 0 W/m 31,4 km/h (5 Bft)
31.03.2015 23:12 4,3 C 2,2 C 85 % 1009,3 hPa 0,0 l/m 0 min 0 min 0 W/m 33,5 km/h (5 Bft)
31.03.2015 23:14 4,3 C 2,2 C 84 % 1009,4 hPa 0,0 l/m 0 min 0 min 0 W/m 33,5 km/h (5 Bft)
31.03.2015 23:16 4,3 C 2,2 C 84 % 1009,4 hPa 0,0 l/m 0 min 0 min 0 W/m 48,1 km/h (6 Bft)
31.03.2015 23:18 4,4 C 2,2 C 84 % 1009,5 hPa 0,0 l/m 0 min 0 min 0 W/m 31,4 km/h (5 Bft)
31.03.2015 23:20 4,4 C 2,2 C 83 % 1009,4 hPa 0,0 l/m 0 min 0 min 0 W/m 29,3 km/h (5 Bft)
31.03.2015 23:22 4,4 C 2,2 C 83 % 1009,4 hPa 0,0 l/m 0 min 0 min 0 W/m 29,3 km/h (5 Bft)
31.03.2015 23:24 4,4 C 2,2 C 83 % 1009,4 hPa 0,0 l/m 0 min 0 min 0 W/m 35,6 km/h (5 Bft)
31.03.2015 23:26 4,4 C 2,2 C 83 % 1009,4 hPa 0,0 l/m 0 min 0 min 0 W/m 37,7 km/h (5 Bft)
31.03.2015 23:28 4,5 C 2,2 C 83 % 1009,3 hPa 0,0 l/m 0 min 0 min 0 W/m 35,6 km/h (5 Bft)
31.03.2015 23:30 4,5 C 2,2 C 83 % 1009,3 hPa 0,0 l/m 0 min 0 min 0 W/m 39,7 km/h (6 Bft)
31.03.2015 23:32 4,5 C 2,2 C 82 % 1009,3 hPa 0,0 l/m 0 min 0 min 0 W/m 29,3 km/h (5 Bft)
31.03.2015 23:34 4,6 C 2,2 C 82 % 1009,4 hPa 0,0 l/m 0 min 0 min 0 W/m 35,6 km/h (5 Bft)
31.03.2015 23:36 4,6 C 2,2 C 82 % 1009,4 hPa 0,0 l/m 0 min 0 min 0 W/m 39,7 km/h (6 Bft)
31.03.2015 23:38 4,6 C 2,2 C 82 % 1009,4 hPa 0,0 l/m 0 min 0 min 0 W/m 31,4 km/h (5 Bft)
31.03.2015 23:40 4,6 C 2,8 C 82 % 1009,3 hPa 0,0 l/m 0 min 0 min 0 W/m 31,4 km/h (5 Bft)
31.03.2015 23:42 4,6 C 2,8 C 82 % 1009,3 hPa 0,0 l/m 0 min 0 min 0 W/m 37,7 km/h (5 Bft)
31.03.2015 23:44 4,6 C 2,8 C 82 % 1009,4 hPa 0,0 l/m 0 min 0 min 0 W/m 33,5 km/h (5 Bft)
31.03.2015 23:46 4,6 C 2,8 C 82 % 1009,5 hPa 0,0 l/m 0 min 0 min 0 W/m 33,5 km/h (5 Bft)
31.03.2015 23:48 4,6 C 2,8 C 82 % 1009,5 hPa 0,0 l/m 0 min 0 min 0 W/m 27,2 km/h (4 Bft)
31.03.2015 23:50 4,6 C 2,8 C 82 % 1009,6 hPa 0,0 l/m 0 min 0 min 0 W/m 25,1 km/h (4 Bft)
31.03.2015 23:52 4,6 C 2,8 C 82 % 1009,7 hPa 0,0 l/m 0 min 0 min 0 W/m 29,3 km/h (5 Bft)
31.03.2015 23:54 4,7 C 2,8 C 82 % 1009,7 hPa 0,0 l/m 0 min 0 min 0 W/m 25,1 km/h (4 Bft)
31.03.2015 23:56 4,7 C 2,8 C 82 % 1009,7 hPa 0,0 l/m 0 min 0 min 0 W/m 27,2 km/h (4 Bft)
31.03.2015 23:58 4,7 C 2,8 C 82 % 1009,7 hPa 0,0 l/m 0 min 0 min 0 W/m 31,4 km/h (5 Bft)
_ Min-Zeit 22:38 22:12 16:46 05:04 - - - - 00:30
Minimum _ 3,9 C 2,2 C 54 % 991,3 hPa - - - - 6,3 km/h (2 Bft)
_ Max-Zeit 14:36 15:28 03:24 23:52 08:16 08:58 00:00 14:22 15:02
Maximum _ 13,1 C 14,4 C 98 % 1009,7 hPa 0,6 l/m 2 min 2 min 934 W/m 93,2 km/h
NW (10 Bft)
Durchschnitt _ 9,1 C 7,6 C 80 % 1000,3 hPa #16,2 l/m #3:14 h #12:01 h 233 W/m 44,8 km/h (6 Bft)
© 2015 W. Hausmann